Time,TemperatureF,DewpointF,PressureIn,WindDirection,WindDirectionDegrees,WindSpeedMPH,WindSpeedGustMPH,Humidity,HourlyPrecipIn,Conditions,Clouds,dailyrainin,SoftwareType,DateUTC
2013-01-27 00:00:00,12.0,-3.5,29.59,East,90,0.0,0.0,49,0.00,,---,0.00,VWS V13.01,2013-01-27 05:00:00,
2013-01-27 00:01:00,12.0,-3.5,29.59,East,90,0.0,0.0,49,0.00,,---,0.00,VWS V13.01,2013-01-27 05:01:00,
2013-01-27 00:03:00,12.0,-3.5,29.59,East,90,0.0,0.0,49,0.00,,---,0.00,VWS V13.01,2013-01-27 05:03:00,
2013-01-27 00:05:00,11.5,-4.0,29.59,ESE,112,0.0,0.0,49,0.00,,---,0.00,VWS V13.01,2013-01-27 05:05:00,
2013-01-27 00:06:00,11.5,-4.0,29.59,ESE,112,0.0,0.0,49,0.00,,---,0.00,VWS V13.01,2013-01-27 05:06:00,
2013-01-27 00:07:00,11.5,-4.0,29.59,ESE,112,0.0,0.0,49,0.00,,---,0.00,VWS V13.01,2013-01-27 05:07:00,
2013-01-27 00:08:00,11.5,-4.0,29.59,ESE,112,0.0,0.0,49,0.00,,---,0.00,VWS V13.01,2013-01-27 05:08:00,
2013-01-27 00:10:00,11.5,-4.0,29.59,ESE,112,0.0,0.0,49,0.00,,---,0.00,VWS V13.01,2013-01-27 05:10:00,
2013-01-27 00:11:00,11.5,-4.0,29.59,ESE,112,0.0,0.0,49,0.00,,---,0.00,VWS V13.01,2013-01-27 05:11:00,
2013-01-27 00:12:00,11.5,-4.0,29.59,ESE,112,0.0,0.0,49,0.00,,---,0.00,VWS V13.01,2013-01-27 05:12:00,
2013-01-27 00:13:00,11.1,-4.3,29.59,ESE,112,0.0,0.0,49,0.00,,---,0.00,VWS V13.01,2013-01-27 05:13:00,
2013-01-27 00:15:00,11.1,-4.3,29.59,ESE,112,0.0,0.0,49,0.00,,---,0.00,VWS V13.01,2013-01-27 05:15:00,
2013-01-27 00:16:00,11.1,-4.3,29.59,ESE,112,0.0,0.0,49,0.00,,---,0.00,VWS V13.01,2013-01-27 05:16:00,
2013-01-27 00:17:00,11.1,-4.3,29.59,ESE,112,0.0,0.0,49,0.00,,---,0.00,VWS V13.01,2013-01-27 05:17:00,
2013-01-27 00:19:00,11.1,-4.3,29.59,ESE,112,0.0,0.0,49,0.00,,---,0.00,VWS V13.01,2013-01-27 05:19:00,
2013-01-27 00:20:00,11.1,-4.3,29.59,ESE,112,0.0,0.0,49,0.00,,---,0.00,VWS V13.01,2013-01-27 05:20:00,
2013-01-27 00:21:00,11.1,-4.3,29.59,ESE,112,0.0,0.0,49,0.00,,---,0.00,VWS V13.01,2013-01-27 05:21:00,
2013-01-27 00:22:00,11.1,-4.3,29.59,ESE,112,0.0,0.0,49,0.00,,---,0.00,VWS V13.01,2013-01-27 05:22:00,
2013-01-27 00:24:00,11.1,-4.3,29.59,ESE,112,0.0,0.0,49,0.00,,---,0.00,VWS V13.01,2013-01-27 05:24:00,
2013-01-27 00:25:00,11.1,-4.3,29.59,ESE,112,0.0,0.0,49,0.00,,---,0.00,VWS V13.01,2013-01-27 05:25:00,
2013-01-27 00:26:00,11.1,-4.3,29.59,ESE,112,0.0,0.0,49,0.00,,---,0.00,VWS V13.01,2013-01-27 05:26:00,
2013-01-27 00:28:00,11.1,-4.3,29.59,ESE,112,0.0,0.0,49,0.00,,---,0.00,VWS V13.01,2013-01-27 05:28:00,
2013-01-27 00:29:00,11.1,-4.3,29.59,ESE,112,0.0,0.0,49,0.00,,---,0.00,VWS V13.01,2013-01-27 05:29:00,
2013-01-27 00:31:00,11.1,-4.3,29.59,ESE,112,0.0,0.0,49,0.00,,---,0.00,VWS V13.01,2013-01-27 05:31:00,
2013-01-27 00:33:00,10.4,-5.0,29.59,ESE,112,0.0,0.0,49,0.00,,---,0.00,VWS V13.01,2013-01-27 05:33:00,
2013-01-27 00:34:00,10.4,-5.0,29.59,ESE,112,0.0,0.0,49,0.00,,---,0.00,VWS V13.01,2013-01-27 05:34:00,
2013-01-27 00:36:00,10.4,-5.0,29.59,ESE,112,0.0,0.0,49,0.00,,---,0.00,VWS V13.01,2013-01-27 05:36:00,
2013-01-27 00:38:00,10.4,-5.0,29.59,SE,135,0.0,0.0,49,0.00,,---,0.00,VWS V13.01,2013-01-27 05:38:00,
2013-01-27 00:39:00,10.4,-5.0,29.59,SE,135,0.0,0.0,49,0.00,,---,0.00,VWS V13.01,2013-01-27 05:39:00,
2013-01-27 00:41:00,10.4,-5.0,29.59,SE,135,0.0,0.0,49,0.00,,---,0.00,VWS V13.01,2013-01-27 05:41:00,
2013-01-27 00:42:00,10.4,-5.0,29.59,SE,135,1.1,1.1,49,0.00,,---,0.00,VWS V13.01,2013-01-27 05:42:00,
2013-01-27 00:43:00,10.4,-5.0,29.59,SE,135,0.0,0.0,49,0.00,,---,0.00,VWS V13.01,2013-01-27 05:43:00,
2013-01-27 00:44:00,10.4,-5.0,29.59,SE,135,0.0,0.0,49,0.00,,---,0.00,VWS V13.01,2013-01-27 05:44:00,
2013-01-27 00:46:00,10.4,-5.0,29.59,SE,135,0.0,0.0,49,0.00,,---,0.00,VWS V13.01,2013-01-27 05:46:00,
2013-01-27 00:47:00,10.4,-5.0,29.59,SE,135,0.0,0.0,49,0.00,,---,0.00,VWS V13.01,2013-01-27 05:47:00,
2013-01-27 00:48:00,10.4,-5.0,29.59,SSE,158,0.0,0.0,49,0.00,,---,0.00,VWS V13.01,2013-01-27 05:48:00,
2013-01-27 00:49:00,10.4,-5.0,29.59,SSE,158,0.0,0.0,49,0.00,,---,0.00,VWS V13.01,2013-01-27 05:49:00,
2013-01-27 00:51:00,10.4,-5.0,29.59,SSE,158,0.0,0.0,49,0.00,,---,0.00,VWS V13.01,2013-01-27 05:51:00,
2013-01-27 00:52:00,10.4,-5.0,29.59,SSE,158,0.0,0.0,49,0.00,,---,0.00,VWS V13.01,2013-01-27 05:52:00,
2013-01-27 00:53:00,10.4,-5.0,29.59,SSE,158,0.0,0.0,49,0.00,,---,0.00,VWS V13.01,2013-01-27 05:53:00,
2013-01-27 00:54:00,10.4,-5.0,29.59,SSE,158,0.0,0.0,49,0.00,,---,0.00,VWS V13.01,2013-01-27 05:54:00,
2013-01-27 00:56:00,10.2,-5.1,29.59,SSE,158,0.0,0.0,49,0.00,,---,0.00,VWS V13.01,2013-01-27 05:56:00,
2013-01-27 00:57:00,10.2,-5.1,29.59,SE,135,0.0,0.0,49,0.00,,---,0.00,VWS V13.01,2013-01-27 05:57:00,
2013-01-27 00:58:00,10.0,-5.3,29.59,SE,135,0.0,0.0,49,0.00,,---,0.00,VWS V13.01,2013-01-27 05:58:00,
2013-01-27 00:59:00,10.0,-5.3,29.59,SE,135,0.0,0.0,49,0.00,,---,0.00,VWS V13.01,2013-01-27 05:59:00,
2013-01-27 01:01:00,10.0,-5.3,29.59,SE,135,0.0,0.0,49,0.00,,---,0.00,VWS V13.01,2013-01-27 06:01:00,
2013-01-27 01:02:00,10.0,-5.3,29.59,SE,135,0.0,0.0,49,0.00,,---,0.00,VWS V13.01,2013-01-27 06:02:00,
2013-01-27 01:03:00,10.0,-5.3,29.59,SE,135,0.0,0.0,49,0.00,,---,0.00,VWS V13.01,2013-01-27 06:03:00,
2013-01-27 01:04:00,10.0,-5.3,29.59,SE,135,0.0,0.0,49,0.00,,---,0.00,VWS V13.01,2013-01-27 06:04:00,
2013-01-27 01:06:00,10.0,-5.3,29.59,SE,135,0.0,0.0,49,0.00,,---,0.00,VWS V13.01,2013-01-27 06:06:00,
2013-01-27 01:07:00,10.0,-5.3,29.59,SE,135,0.0,0.0,49,0.00,,---,0.00,VWS V13.01,2013-01-27 06:07:00,
2013-01-27 01:08:00,10.0,-5.3,29.59,SE,135,0.0,0.0,49,0.00,,---,0.00,VWS V13.01,2013-01-27 06:08:00,
2013-01-27 01:09:00,10.0,-5.3,29.59,SE,135,0.0,0.0,49,0.00,,---,0.00,VWS V13.01,2013-01-27 06:09:00,
2013-01-27 01:11:00,10.0,-5.3,29.59,SW,225,0.0,0.0,49,0.00,,---,0.00,VWS V13.01,2013-01-27 06:11:00,
2013-01-27 01:12:00,10.0,-5.3,29.59,WSW,248,0.0,0.0,49,0.00,,---,0.00,VWS V13.01,2013-01-27 06:12:00,
2013-01-27 01:13:00,10.0,-5.3,29.59,SW,225,0.0,0.0,49,0.00,,---,0.00,VWS V13.01,2013-01-27 06:13:00,
2013-01-27 01:14:00,10.0,-5.3,29.59,SSW,202,0.0,0.0,49,0.00,,---,0.00,VWS V13.01,2013-01-27 06:14:00,
2013-01-27 01:17:00,10.0,-5.3,29.59,SSW,202,0.0,0.0,49,0.00,,---,0.00,VWS V13.01,2013-01-27 06:17:00,
2013-01-27 01:18:00,10.0,-5.3,29.59,SSW,202,0.0,0.0,49,0.00,,---,0.00,VWS V13.01,2013-01-27 06:18:00,
2013-01-27 01:20:00,10.0,-5.3,29.59,SSW,202,0.0,0.0,49,0.00,,---,0.00,VWS V13.01,2013-01-27 06:20:00,
2013-01-27 01:22:00,10.0,-5.3,29.59,South,180,0.0,0.0,49,0.00,,---,0.00,VWS V13.01,2013-01-27 06:22:00,
2013-01-27 01:23:00,9.5,-5.8,29.59,SE,135,0.9,0.9,49,0.00,,---,0.00,VWS V13.01,2013-01-27 06:23:00,
2013-01-27 01:25:00,9.5,-5.8,29.59,SE,135,0.0,0.0,49,0.00,,---,0.00,VWS V13.01,2013-01-27 06:25:00,
2013-01-27 01:27:00,9.3,-6.0,29.59,SE,135,0.0,0.0,49,0.00,,---,0.00,VWS V13.01,2013-01-27 06:27:00,
2013-01-27 01:28:00,9.3,-6.0,29.59,SE,135,0.0,0.0,49,0.00,,---,0.00,VWS V13.01,2013-01-27 06:28:00,
2013-01-27 01:30:00,9.3,-6.0,29.59,SE,135,0.0,0.0,49,0.00,,---,0.00,VWS V13.01,2013-01-27 06:30:00,
2013-01-27 01:32:00,9.3,-6.0,29.59,SE,135,0.0,0.0,49,0.00,,---,0.00,VWS V13.01,2013-01-27 06:32:00,
2013-01-27 01:33:00,9.3,-6.0,29.59,SE,135,0.0,0.0,49,0.00,,---,0.00,VWS V13.01,2013-01-27 06:33:00,
2013-01-27 01:35:00,9.3,-6.0,29.59,SE,135,0.0,0.0,49,0.00,,---,0.00,VWS V13.01,2013-01-27 06:35:00,
2013-01-27 01:37:00,9.3,-6.0,29.62,SE,135,0.0,0.0,49,0.00,,---,0.00,VWS V13.01,2013-01-27 06:37:00,
2013-01-27 01:38:00,9.3,-6.0,29.62,SE,135,0.0,0.0,49,0.00,,---,0.00,VWS V13.01,2013-01-27 06:38:00,
2013-01-27 01:40:00,9.3,-6.0,29.62,SE,135,0.0,0.0,49,0.00,,---,0.00,VWS V13.01,2013-01-27 06:40:00,
2013-01-27 01:42:00,9.3,-6.0,29.62,SE,135,0.0,0.0,49,0.00,,---,0.00,VWS V13.01,2013-01-27 06:42:00,
2013-01-27 01:43:00,9.3,-6.0,29.62,SE,135,0.0,0.0,49,0.00,,---,0.00,VWS V13.01,2013-01-27 06:43:00,
2013-01-27 01:45:00,9.3,-6.0,29.62,SE,135,0.0,0.0,49,0.00,,---,0.00,VWS V13.01,2013-01-27 06:45:00,
2013-01-27 01:47:00,9.0,-6.3,29.62,SE,135,0.0,0.0,49,0.00,,---,0.00,VWS V13.01,2013-01-27 06:47:00,
2013-01-27 01:48:00,9.0,-6.3,29.62,SE,135,0.0,0.0,49,0.00,,---,0.00,VWS V13.01,2013-01-27 06:48:00,
2013-01-27 01:49:00,9.0,-6.3,29.62,SE,135,0.0,0.0,49,0.00,,---,0.00,VWS V13.01,2013-01-27 06:49:00,
2013-01-27 01:50:00,9.0,-6.3,29.62,SE,135,0.0,0.0,49,0.00,,---,0.00,VWS V13.01,2013-01-27 06:50:00,
2013-01-27 01:53:00,9.0,-6.3,29.62,SE,135,0.0,0.0,49,0.00,,---,0.00,VWS V13.01,2013-01-27 06:53:00,
2013-01-27 01:54:00,9.0,-6.3,29.62,SE,135,0.0,0.0,49,0.00,,---,0.00,VWS V13.01,2013-01-27 06:54:00,
2013-01-27 01:55:00,9.0,-6.3,29.62,SE,135,0.0,0.0,49,0.00,,---,0.00,VWS V13.01,2013-01-27 06:55:00,
2013-01-27 01:58:00,9.0,-6.3,29.62,SE,135,0.0,0.0,49,0.00,,---,0.00,VWS V13.01,2013-01-27 06:58:00,
2013-01-27 01:59:00,9.0,-6.3,29.62,SW,225,1.6,1.6,49,0.00,,---,0.00,VWS V13.01,2013-01-27 06:59:00,
2013-01-27 02:00:00,8.8,-6.5,29.62,SSE,158,0.0,0.0,49,0.00,,---,0.00,VWS V13.01,2013-01-27 07:00:00,
2013-01-27 02:03:00,8.8,-6.5,29.62,SSW,202,0.0,0.0,49,0.00,,---,0.00,VWS V13.01,2013-01-27 07:03:00,
2013-01-27 02:04:00,8.8,-6.5,29.62,SSW,202,0.0,0.0,49,0.00,,---,0.00,VWS V13.01,2013-01-27 07:04:00,
2013-01-27 02:05:00,8.8,-6.5,29.62,SSW,202,0.0,0.0,49,0.00,,---,0.00,VWS V13.01,2013-01-27 07:05:00,
2013-01-27 02:08:00,8.6,-6.6,29.62,SSW,202,0.0,0.9,49,0.00,,---,0.00,VWS V13.01,2013-01-27 07:08:00,
2013-01-27 02:09:00,8.6,-6.6,29.62,SSW,202,0.0,0.0,49,0.00,,---,0.00,VWS V13.01,2013-01-27 07:09:00,
2013-01-27 02:13:00,8.6,-6.6,29.62,SSW,202,0.0,0.0,49,0.00,,---,0.00,VWS V13.01,2013-01-27 07:13:00,
2013-01-27 02:14:00,8.6,-6.6,29.62,SSW,202,0.0,0.0,49,0.00,,---,0.00,VWS V13.01,2013-01-27 07:14:00,
2013-01-27 02:18:00,8.6,-6.6,29.62,SSW,202,0.0,0.0,49,0.00,,---,0.00,VWS V13.01,2013-01-27 07:18:00,
2013-01-27 02:19:00,8.1,-7.1,29.62,SSW,202,0.0,0.0,49,0.00,,---,0.00,VWS V13.01,2013-01-27 07:19:00,
2013-01-27 02:23:00,8.1,-7.1,29.62,East,90,0.0,0.0,49,0.00,,---,0.00,VWS V13.01,2013-01-27 07:23:00,
2013-01-27 02:24:00,8.1,-7.1,29.62,East,90,0.0,0.0,49,0.00,,---,0.00,VWS V13.01,2013-01-27 07:24:00,
2013-01-27 02:28:00,8.1,-7.1,29.62,SE,135,0.0,0.0,49,0.00,,---,0.00,VWS V13.01,2013-01-27 07:28:00,
2013-01-27 02:29:00,8.1,-7.1,29.62,SE,135,0.0,0.0,49,0.00,,---,0.00,VWS V13.01,2013-01-27 07:29:00,
2013-01-27 02:34:00,8.1,-7.1,29.62,West,270,1.3,1.3,49,0.00,,---,0.00,VWS V13.01,2013-01-27 07:34:00,
2013-01-27 02:39:00,8.1,-7.1,29.62,SSE,158,0.0,0.0,49,0.00,,---,0.00,VWS V13.01,2013-01-27 07:39:00,
2013-01-27 02:40:00,8.1,-7.1,29.62,SW,225,0.0,0.0,49,0.00,,---,0.00,VWS V13.01,2013-01-27 07:40:00,
2013-01-27 02:44:00,8.1,-7.1,29.62,SSW,202,0.0,0.0,49,0.00,,---,0.00,VWS V13.01,2013-01-27 07:44:00,
2013-01-27 02:45:00,8.1,-7.1,29.62,South,180,0.0,0.0,49,0.00,,---,0.00,VWS V13.01,2013-01-27 07:45:00,
2013-01-27 02:49:00,8.1,-7.1,29.62,SE,135,0.0,0.0,49,0.00,,---,0.00,VWS V13.01,2013-01-27 07:49:00,
2013-01-27 02:50:00,8.1,-7.1,29.62,SE,135,0.0,0.0,49,0.00,,---,0.00,VWS V13.01,2013-01-27 07:50:00,
2013-01-27 02:54:00,8.1,-7.1,29.62,South,180,0.0,0.0,49,0.00,,---,0.00,VWS V13.01,2013-01-27 07:54:00,
2013-01-27 02:55:00,8.1,-7.1,29.62,South,180,0.0,0.0,49,0.00,,---,0.00,VWS V13.01,2013-01-27 07:55:00,
2013-01-27 02:59:00,8.1,-7.1,29.62,South,180,0.0,0.0,49,0.00,,---,0.00,VWS V13.01,2013-01-27 07:59:00,
2013-01-27 03:00:00,8.1,-7.1,29.62,South,180,0.0,0.0,49,0.00,,---,0.00,VWS V13.01,2013-01-27 08:00:00,
2013-01-27 03:04:00,8.1,-7.1,29.62,SE,135,0.0,0.0,49,0.00,,---,0.00,VWS V13.01,2013-01-27 08:04:00,
2013-01-27 03:05:00,8.1,-7.1,29.62,SE,135,0.0,0.0,49,0.00,,---,0.00,VWS V13.01,2013-01-27 08:05:00,
2013-01-27 03:09:00,8.1,-7.1,29.62,SSW,202,0.0,0.0,49,0.00,,---,0.00,VWS V13.01,2013-01-27 08:09:00,
2013-01-27 03:10:00,8.1,-7.1,29.62,SSW,202,0.0,0.0,49,0.00,,---,0.00,VWS V13.01,2013-01-27 08:10:00,
2013-01-27 03:14:00,7.5,-7.6,29.62,SSW,202,0.0,0.0,49,0.00,,---,0.00,VWS V13.01,2013-01-27 08:14:00,
2013-01-27 03:15:00,7.5,-7.6,29.62,SSW,202,0.0,0.0,49,0.00,,---,0.00,VWS V13.01,2013-01-27 08:15:00,
2013-01-27 03:19:00,7.5,-7.6,29.62,SSW,202,0.0,0.0,49,0.00,,---,0.00,VWS V13.01,2013-01-27 08:19:00,
2013-01-27 03:20:00,7.5,-7.6,29.62,SW,225,1.6,1.6,49,0.00,,---,0.00,VWS V13.01,2013-01-27 08:20:00,
2013-01-27 03:24:00,7.5,-7.6,29.62,ESE,112,0.0,0.0,49,0.00,,---,0.00,VWS V13.01,2013-01-27 08:24:00,
2013-01-27 03:25:00,7.5,-7.6,29.62,ESE,112,0.0,0.0,49,0.00,,---,0.00,VWS V13.01,2013-01-27 08:25:00,
2013-01-27 03:29:00,7.3,-7.8,29.62,SSE,158,0.0,0.0,49,0.00,,---,0.00,VWS V13.01,2013-01-27 08:29:00,
2013-01-27 03:30:00,7.5,-7.6,29.62,West,270,0.0,0.0,49,0.00,,---,0.00,VWS V13.01,2013-01-27 08:30:00,
2013-01-27 03:34:00,7.5,-7.6,29.62,East,90,0.9,0.9,49,0.00,,---,0.00,VWS V13.01,2013-01-27 08:34:00,
2013-01-27 03:35:00,7.2,-8.0,29.62,East,90,0.9,0.9,49,0.00,,---,0.00,VWS V13.01,2013-01-27 08:35:00,
2013-01-27 03:39:00,7.2,-8.0,29.62,East,90,0.0,0.0,49,0.00,,---,0.00,VWS V13.01,2013-01-27 08:39:00,
2013-01-27 03:40:00,7.2,-8.0,29.62,East,90,0.0,0.0,49,0.00,,---,0.00,VWS V13.01,2013-01-27 08:40:00,
2013-01-27 03:41:00,7.2,-8.0,29.62,East,90,0.0,0.0,49,0.00,,---,0.00,VWS V13.01,2013-01-27 08:41:00,
2013-01-27 03:44:00,7.2,-8.0,29.62,West,270,1.6,1.6,49,0.00,,---,0.00,VWS V13.01,2013-01-27 08:44:00,
2013-01-27 03:45:00,7.2,-8.0,29.62,West,270,1.6,1.6,49,0.00,,---,0.00,VWS V13.01,2013-01-27 08:45:00,
2013-01-27 03:46:00,7.2,-8.0,29.62,West,270,1.6,1.6,49,0.00,,---,0.00,VWS V13.01,2013-01-27 08:46:00,
2013-01-27 03:49:00,7.2,-8.0,29.62,SSW,202,0.0,0.0,49,0.00,,---,0.00,VWS V13.01,2013-01-27 08:49:00,
2013-01-27 03:50:00,7.2,-8.0,29.62,SSW,202,0.0,0.0,49,0.00,,---,0.00,VWS V13.01,2013-01-27 08:50:00,
2013-01-27 03:51:00,7.2,-8.0,29.62,SSW,202,0.0,0.0,49,0.00,,---,0.00,VWS V13.01,2013-01-27 08:51:00,
2013-01-27 03:54:00,7.2,-8.0,29.65,East,90,0.0,0.0,49,0.00,,---,0.00,VWS V13.01,2013-01-27 08:54:00,
2013-01-27 03:55:00,7.2,-8.0,29.65,East,90,0.0,0.0,49,0.00,,---,0.00,VWS V13.01,2013-01-27 08:55:00,
2013-01-27 03:56:00,7.2,-8.0,29.65,East,90,0.0,0.0,49,0.00,,---,0.00,VWS V13.01,2013-01-27 08:56:00,
2013-01-27 04:00:00,7.0,-8.1,29.65,East,90,1.1,1.1,49,0.00,,---,0.00,VWS V13.01,2013-01-27 09:00:00,
2013-01-27 04:01:00,7.0,-8.1,29.65,East,90,0.0,1.1,49,0.00,,---,0.00,VWS V13.01,2013-01-27 09:01:00,
2013-01-27 04:05:00,7.0,-8.1,29.65,SSE,158,0.0,0.0,49,0.00,,---,0.00,VWS V13.01,2013-01-27 09:05:00,
2013-01-27 04:06:00,7.0,-8.1,29.65,South,180,0.0,0.0,49,0.00,,---,0.00,VWS V13.01,2013-01-27 09:06:00,
2013-01-27 04:10:00,7.0,-8.1,29.65,SSE,158,0.0,0.0,49,0.00,,---,0.00,VWS V13.01,2013-01-27 09:10:00,
2013-01-27 04:11:00,7.0,-8.1,29.65,SSE,158,0.0,0.0,49,0.00,,---,0.00,VWS V13.01,2013-01-27 09:11:00,
2013-01-27 04:15:00,7.0,-8.1,29.65,SSE,158,0.0,0.0,49,0.00,,---,0.00,VWS V13.01,2013-01-27 09:15:00,
2013-01-27 04:16:00,7.0,-8.1,29.65,SSE,158,0.0,0.0,49,0.00,,---,0.00,VWS V13.01,2013-01-27 09:16:00,
2013-01-27 04:20:00,7.0,-8.1,29.65,SSW,202,0.0,0.0,49,0.00,,---,0.00,VWS V13.01,2013-01-27 09:20:00,
2013-01-27 04:21:00,7.0,-8.1,29.65,East,90,0.0,0.0,49,0.00,,---,0.00,VWS V13.01,2013-01-27 09:21:00,
2013-01-27 04:25:00,7.0,-8.1,29.62,East,90,0.0,0.0,49,0.00,,---,0.00,VWS V13.01,2013-01-27 09:25:00,
2013-01-27 04:26:00,7.0,-8.1,29.62,East,90,0.0,0.0,49,0.00,,---,0.00,VWS V13.01,2013-01-27 09:26:00,
2013-01-27 04:27:00,7.0,-8.1,29.62,East,90,0.0,0.0,49,0.00,,---,0.00,VWS V13.01,2013-01-27 09:27:00,
2013-01-27 04:30:00,7.0,-8.1,29.62,East,90,0.0,0.0,49,0.00,,---,0.00,VWS V13.01,2013-01-27 09:30:00,
2013-01-27 04:31:00,7.0,-8.1,29.62,East,90,0.0,0.0,49,0.00,,---,0.00,VWS V13.01,2013-01-27 09:31:00,
2013-01-27 04:32:00,7.0,-8.1,29.62,East,90,0.0,0.0,49,0.00,,---,0.00,VWS V13.01,2013-01-27 09:32:00,
2013-01-27 04:35:00,7.0,-8.1,29.62,East,90,0.0,0.0,49,0.00,,---,0.00,VWS V13.01,2013-01-27 09:35:00,
2013-01-27 04:36:00,7.0,-8.1,29.62,West,270,2.0,2.0,49,0.00,,---,0.00,VWS V13.01,2013-01-27 09:36:00,
2013-01-27 04:37:00,7.0,-8.1,29.62,WSW,248,0.0,2.0,49,0.00,,---,0.00,VWS V13.01,2013-01-27 09:37:00,
2013-01-27 04:40:00,7.0,-8.1,29.62,WNW,292,0.0,0.0,49,0.00,,---,0.00,VWS V13.01,2013-01-27 09:40:00,
2013-01-27 04:41:00,7.0,-8.1,29.62,NE,45,0.0,0.0,49,0.00,,---,0.00,VWS V13.01,2013-01-27 09:41:00,
2013-01-27 04:42:00,7.0,-8.1,29.62,NE,45,0.0,0.0,49,0.00,,---,0.00,VWS V13.01,2013-01-27 09:42:00,
2013-01-27 04:45:00,7.0,-8.1,29.62,ENE,68,1.6,1.6,49,0.00,,---,0.00,VWS V13.01,2013-01-27 09:45:00,
2013-01-27 04:46:00,7.0,-8.1,29.62,East,90,2.0,2.0,49,0.00,,---,0.00,VWS V13.01,2013-01-27 09:46:00,
2013-01-27 04:47:00,7.0,-8.1,29.62,East,90,2.0,2.0,49,0.00,,---,0.00,VWS V13.01,2013-01-27 09:47:00,
2013-01-27 04:50:00,7.0,-8.1,29.62,WNW,292,1.6,2.0,49,0.00,,---,0.00,VWS V13.01,2013-01-27 09:50:00,
2013-01-27 04:51:00,7.2,-8.0,29.62,West,270,0.0,1.6,49,0.00,,---,0.00,VWS V13.01,2013-01-27 09:51:00,
2013-01-27 04:52:00,7.2,-8.0,29.62,ESE,112,0.0,0.0,49,0.00,,---,0.00,VWS V13.01,2013-01-27 09:52:00,
2013-01-27 04:55:00,7.2,-8.0,29.62,East,90,0.0,0.0,49,0.00,,---,0.00,VWS V13.01,2013-01-27 09:55:00,
2013-01-27 04:56:00,7.2,-8.0,29.62,East,90,0.0,0.0,49,0.00,,---,0.00,VWS V13.01,2013-01-27 09:56:00,
2013-01-27 04:57:00,7.2,-8.0,29.62,East,90,0.0,0.0,49,0.00,,---,0.00,VWS V13.01,2013-01-27 09:57:00,
2013-01-27 05:00:00,7.2,-8.0,29.62,SSW,202,0.0,0.0,49,0.00,,---,0.00,VWS V13.01,2013-01-27 10:00:00,
2013-01-27 05:01:00,7.2,-8.0,29.62,SSW,202,0.0,0.0,49,0.00,,---,0.00,VWS V13.01,2013-01-27 10:01:00,
2013-01-27 05:02:00,7.2,-8.0,29.62,South,180,0.0,0.0,49,0.00,,---,0.00,VWS V13.01,2013-01-27 10:02:00,
2013-01-27 05:05:00,7.5,-7.6,29.62,South,180,0.0,0.0,49,0.00,,---,0.00,VWS V13.01,2013-01-27 10:05:00,
2013-01-27 05:06:00,7.5,-7.6,29.65,South,180,0.0,0.0,49,0.00,,---,0.00,VWS V13.01,2013-01-27 10:06:00,
2013-01-27 05:07:00,7.5,-7.6,29.65,South,180,0.0,0.0,49,0.00,,---,0.00,VWS V13.01,2013-01-27 10:07:00,
2013-01-27 05:08:00,7.5,-7.6,29.65,South,180,0.0,0.0,49,0.00,,---,0.00,VWS V13.01,2013-01-27 10:08:00,
2013-01-27 05:10:00,7.5,-7.6,29.65,East,90,0.0,0.0,49,0.00,,---,0.00,VWS V13.01,2013-01-27 10:10:00,
2013-01-27 05:11:00,7.5,-7.6,29.65,East,90,1.6,1.6,49,0.00,,---,0.00,VWS V13.01,2013-01-27 10:11:00,
2013-01-27 05:12:00,7.5,-7.6,29.65,East,90,1.6,1.6,49,0.00,,---,0.00,VWS V13.01,2013-01-27 10:12:00,
2013-01-27 05:13:00,7.5,-7.6,29.65,ENE,68,1.1,1.6,49,0.00,,---,0.00,VWS V13.01,2013-01-27 10:13:00,
2013-01-27 05:15:00,7.5,-7.6,29.65,ESE,112,0.0,0.0,49,0.00,,---,0.00,VWS V13.01,2013-01-27 10:15:00,
2013-01-27 05:16:00,7.5,-7.6,29.65,WSW,248,0.0,0.0,49,0.00,,---,0.00,VWS V13.01,2013-01-27 10:16:00,
2013-01-27 05:17:00,7.5,-7.6,29.65,WSW,248,1.3,1.3,49,0.00,,---,0.00,VWS V13.01,2013-01-27 10:17:00,
2013-01-27 05:18:00,7.5,-7.6,29.65,WSW,248,1.3,1.3,49,0.00,,---,0.00,VWS V13.01,2013-01-27 10:18:00,
2013-01-27 05:21:00,7.7,-7.5,29.65,SE,135,0.0,0.0,49,0.00,,---,0.00,VWS V13.01,2013-01-27 10:21:00,
2013-01-27 05:22:00,7.7,-7.5,29.65,SE,135,0.0,0.0,49,0.00,,---,0.00,VWS V13.01,2013-01-27 10:22:00,
2013-01-27 05:23:00,7.7,-7.5,29.65,SE,135,0.0,0.0,49,0.00,,---,0.00,VWS V13.01,2013-01-27 10:23:00,
2013-01-27 05:26:00,7.7,-7.5,29.65,East,90,0.0,0.0,49,0.00,,---,0.00,VWS V13.01,2013-01-27 10:26:00,
2013-01-27 05:27:00,7.7,-7.5,29.65,East,90,0.0,0.0,49,0.00,,---,0.00,VWS V13.01,2013-01-27 10:27:00,
2013-01-27 05:28:00,7.7,-7.5,29.65,East,90,0.0,0.0,49,0.00,,---,0.00,VWS V13.01,2013-01-27 10:28:00,
2013-01-27 05:31:00,7.7,-7.5,29.65,WSW,248,1.3,1.3,49,0.00,,---,0.00,VWS V13.01,2013-01-27 10:31:00,
2013-01-27 05:32:00,7.7,-7.5,29.65,WSW,248,0.0,1.1,49,0.00,,---,0.00,VWS V13.01,2013-01-27 10:32:00,
2013-01-27 05:33:00,7.7,-7.5,29.65,SSW,202,0.0,0.0,49,0.00,,---,0.00,VWS V13.01,2013-01-27 10:33:00,
2013-01-27 05:36:00,7.7,-7.5,29.65,ESE,112,0.0,0.0,49,0.00,,---,0.00,VWS V13.01,2013-01-27 10:36:00,
2013-01-27 05:37:00,7.7,-7.5,29.65,ESE,112,0.0,0.0,49,0.00,,---,0.00,VWS V13.01,2013-01-27 10:37:00,
2013-01-27 05:38:00,7.7,-7.5,29.65,ESE,112,0.0,0.0,49,0.00,,---,0.00,VWS V13.01,2013-01-27 10:38:00,
2013-01-27 05:41:00,7.7,-7.5,29.65,SSE,158,0.0,0.0,49,0.00,,---,0.00,VWS V13.01,2013-01-27 10:41:00,
2013-01-27 05:42:00,7.7,-7.5,29.65,East,90,0.0,0.0,49,0.00,,---,0.00,VWS V13.01,2013-01-27 10:42:00,
2013-01-27 05:43:00,7.7,-7.5,29.65,East,90,0.0,0.0,49,0.00,,---,0.00,VWS V13.01,2013-01-27 10:43:00,
2013-01-27 05:46:00,7.5,-7.6,29.65,NE,45,0.0,0.0,49,0.00,,---,0.00,VWS V13.01,2013-01-27 10:46:00,
2013-01-27 05:47:00,7.5,-7.6,29.65,NE,45,0.0,0.0,49,0.00,,---,0.00,VWS V13.01,2013-01-27 10:47:00,
2013-01-27 05:48:00,7.5,-7.6,29.65,NE,45,0.0,0.0,49,0.00,,---,0.00,VWS V13.01,2013-01-27 10:48:00,
2013-01-27 05:51:00,7.5,-7.6,29.65,West,270,0.0,0.0,49,0.00,,---,0.00,VWS V13.01,2013-01-27 10:51:00,
2013-01-27 05:52:00,7.5,-7.6,29.65,West,270,0.0,0.0,49,0.00,,---,0.00,VWS V13.01,2013-01-27 10:52:00,
2013-01-27 05:53:00,7.5,-7.6,29.65,West,270,0.0,0.0,49,0.00,,---,0.00,VWS V13.01,2013-01-27 10:53:00,
2013-01-27 05:56:00,7.5,-7.6,29.65,North,0,0.0,0.0,49,0.00,,---,0.00,VWS V13.01,2013-01-27 10:56:00,
2013-01-27 05:57:00,7.3,-7.8,29.65,North,0,0.0,0.0,49,0.00,,---,0.00,VWS V13.01,2013-01-27 10:57:00,
2013-01-27 05:58:00,7.3,-7.8,29.65,North,0,0.0,0.0,49,0.00,,---,0.00,VWS V13.01,2013-01-27 10:58:00,
2013-01-27 06:01:00,7.3,-7.8,29.65,East,90,0.0,0.0,49,0.00,,---,0.00,VWS V13.01,2013-01-27 11:01:00,
2013-01-27 06:02:00,7.3,-7.8,29.65,East,90,0.0,0.0,49,0.00,,---,0.00,VWS V13.01,2013-01-27 11:02:00,
2013-01-27 06:03:00,7.3,-7.8,29.65,East,90,0.0,0.0,49,0.00,,---,0.00,VWS V13.01,2013-01-27 11:03:00,
2013-01-27 06:06:00,7.3,-7.8,29.65,East,90,2.2,2.2,49,0.00,,---,0.00,VWS V13.01,2013-01-27 11:06:00,
2013-01-27 06:07:00,7.3,-7.8,29.65,East,90,1.6,2.5,49,0.00,,---,0.00,VWS V13.01,2013-01-27 11:07:00,
2013-01-27 06:08:00,7.3,-7.8,29.65,East,90,2.0,2.0,49,0.00,,---,0.00,VWS V13.01,2013-01-27 11:08:00,
2013-01-27 06:11:00,7.3,-7.8,29.65,East,90,0.9,2.0,49,0.00,,---,0.00,VWS V13.01,2013-01-27 11:11:00,
2013-01-27 06:12:00,9.1,-6.1,29.65,East,90,0.0,0.0,49,0.00,,---,0.00,VWS V13.01,2013-01-27 11:12:00,
2013-01-27 06:13:00,9.1,-6.1,29.65,East,90,0.0,0.0,49,0.00,,---,0.00,VWS V13.01,2013-01-27 11:13:00,
2013-01-27 06:14:00,9.1,-6.1,29.65,SE,135,0.0,0.0,49,0.00,,---,0.00,VWS V13.01,2013-01-27 11:14:00,
2013-01-27 06:16:00,9.1,-6.1,29.65,WSW,248,0.0,0.0,49,0.00,,---,0.00,VWS V13.01,2013-01-27 11:16:00,
2013-01-27 06:17:00,9.1,-6.1,29.65,WSW,248,0.0,0.0,49,0.00,,---,0.00,VWS V13.01,2013-01-27 11:17:00,
2013-01-27 06:18:00,9.1,-6.1,29.65,WSW,248,0.0,0.0,49,0.00,,---,0.00,VWS V13.01,2013-01-27 11:18:00,
2013-01-27 06:19:00,9.1,-6.1,29.65,WSW,248,0.0,0.0,49,0.00,,---,0.00,VWS V13.01,2013-01-27 11:19:00,
2013-01-27 06:21:00,9.1,-6.1,29.68,WSW,248,0.0,0.0,49,0.00,,---,0.00,VWS V13.01,2013-01-27 11:21:00,
2013-01-27 06:22:00,9.1,-6.1,29.68,WSW,248,0.0,0.0,49,0.00,,---,0.00,VWS V13.01,2013-01-27 11:22:00,
2013-01-27 06:23:00,8.6,-6.6,29.68,WSW,248,0.0,0.0,49,0.00,,---,0.00,VWS V13.01,2013-01-27 11:23:00,
2013-01-27 06:24:00,8.6,-6.6,29.68,WSW,248,0.0,0.0,49,0.00,,---,0.00,VWS V13.01,2013-01-27 11:24:00,
2013-01-27 06:26:00,8.4,-6.8,29.68,WSW,248,0.0,0.0,49,0.00,,---,0.00,VWS V13.01,2013-01-27 11:26:00,
2013-01-27 06:27:00,8.4,-6.8,29.68,SSE,158,0.0,0.0,49,0.00,,---,0.00,VWS V13.01,2013-01-27 11:27:00,
2013-01-27 06:28:00,8.4,-6.8,29.68,SSE,158,0.0,0.0,49,0.00,,---,0.00,VWS V13.01,2013-01-27 11:28:00,
2013-01-27 06:29:00,8.4,-6.8,29.68,SSE,158,0.0,0.0,49,0.00,,---,0.00,VWS V13.01,2013-01-27 11:29:00,
2013-01-27 06:41:00,8.2,-7.0,29.68,SE,135,0.0,0.0,49,0.00,,---,0.00,VWS V13.01,2013-01-27 11:41:00,
2013-01-27 06:42:00,8.2,-7.0,29.68,SE,135,0.0,0.0,49,0.00,,---,0.00,VWS V13.01,2013-01-27 11:42:00,
2013-01-27 06:46:00,8.1,-7.1,29.68,SE,135,0.0,0.0,49,0.00,,---,0.00,VWS V13.01,2013-01-27 11:46:00,
2013-01-27 06:47:00,8.1,-7.1,29.68,SE,135,0.0,0.0,49,0.00,,---,0.00,VWS V13.01,2013-01-27 11:47:00,
2013-01-27 06:51:00,8.1,-7.1,29.68,East,90,0.0,0.0,49,0.00,,---,0.00,VWS V13.01,2013-01-27 11:51:00,
2013-01-27 06:52:00,8.1,-7.1,29.68,East,90,0.0,0.0,49,0.00,,---,0.00,VWS V13.01,2013-01-27 11:52:00,
2013-01-27 06:56:00,8.1,-7.1,29.68,East,90,0.0,0.0,49,0.00,,---,0.00,VWS V13.01,2013-01-27 11:56:00,
2013-01-27 06:57:00,8.1,-7.1,29.68,East,90,0.0,0.0,49,0.00,,---,0.00,VWS V13.01,2013-01-27 11:57:00,
2013-01-27 06:58:00,8.1,-7.1,29.68,East,90,0.0,0.0,49,0.00,,---,0.00,VWS V13.01,2013-01-27 11:58:00,
2013-01-27 07:01:00,8.1,-7.1,29.68,East,90,0.0,0.0,49,0.00,,---,0.00,VWS V13.01,2013-01-27 12:01:00,
2013-01-27 07:02:00,8.1,-7.1,29.68,East,90,0.0,0.0,49,0.00,,---,0.00,VWS V13.01,2013-01-27 12:02:00,
2013-01-27 07:03:00,8.1,-7.1,29.68,East,90,0.0,0.0,49,0.00,,---,0.00,VWS V13.01,2013-01-27 12:03:00,
2013-01-27 07:07:00,8.1,-7.1,29.68,East,90,0.0,0.0,49,0.00,,---,0.00,VWS V13.01,2013-01-27 12:07:00,
2013-01-27 07:08:00,8.6,-6.6,29.68,East,90,0.0,0.0,49,0.00,,---,0.00,VWS V13.01,2013-01-27 12:08:00,
2013-01-27 07:12:00,8.6,-6.6,29.68,East,90,0.0,0.0,49,0.00,,---,0.00,VWS V13.01,2013-01-27 12:12:00,
2013-01-27 07:13:00,8.6,-6.6,29.68,East,90,0.0,0.0,49,0.00,,---,0.00,VWS V13.01,2013-01-27 12:13:00,
2013-01-27 07:17:00,8.6,-6.6,29.68,East,90,0.0,0.0,49,0.00,,---,0.00,VWS V13.01,2013-01-27 12:17:00,
2013-01-27 07:18:00,8.6,-6.6,29.68,East,90,1.3,1.3,49,0.00,,---,0.00,VWS V13.01,2013-01-27 12:18:00,
2013-01-27 07:22:00,8.4,-6.8,29.68,ENE,68,0.0,1.1,49,0.00,,---,0.00,VWS V13.01,2013-01-27 12:22:00,
2013-01-27 07:23:00,8.4,-6.8,29.68,ENE,68,0.9,0.9,49,0.00,,---,0.00,VWS V13.01,2013-01-27 12:23:00,
2013-01-27 07:27:00,8.4,-6.8,29.68,ENE,68,0.0,0.0,49,0.00,,---,0.00,VWS V13.01,2013-01-27 12:27:00,
2013-01-27 07:28:00,8.4,-6.8,29.68,ENE,68,0.0,0.0,49,0.00,,---,0.00,VWS V13.01,2013-01-27 12:28:00,
2013-01-27 07:29:00,8.4,-6.8,29.68,ENE,68,0.0,0.0,49,0.00,,---,0.00,VWS V13.01,2013-01-27 12:29:00,
2013-01-27 07:32:00,8.6,-6.6,29.68,ENE,68,0.0,0.0,49,0.00,,---,0.00,VWS V13.01,2013-01-27 12:32:00,
2013-01-27 07:33:00,8.6,-6.6,29.68,ENE,68,0.0,0.0,49,0.00,,---,0.00,VWS V13.01,2013-01-27 12:33:00,
2013-01-27 07:34:00,8.6,-6.6,29.68,ENE,68,0.0,0.0,49,0.00,,---,0.00,VWS V13.01,2013-01-27 12:34:00,
2013-01-27 07:37:00,8.6,-6.6,29.68,ENE,68,0.0,0.0,49,0.00,,---,0.00,VWS V13.01,2013-01-27 12:37:00,
2013-01-27 07:38:00,8.6,-6.6,29.68,ENE,68,0.0,0.0,49,0.00,,---,0.00,VWS V13.01,2013-01-27 12:38:00,
2013-01-27 07:39:00,8.6,-6.6,29.68,ENE,68,0.0,0.0,49,0.00,,---,0.00,VWS V13.01,2013-01-27 12:39:00,
2013-01-27 07:42:00,8.8,-6.5,29.68,ENE,68,0.0,0.0,49,0.00,,---,0.00,VWS V13.01,2013-01-27 12:42:00,
2013-01-27 07:43:00,8.8,-6.5,29.68,ENE,68,0.0,0.0,49,0.00,,---,0.00,VWS V13.01,2013-01-27 12:43:00,
2013-01-27 07:44:00,8.8,-6.5,29.68,ENE,68,0.0,0.0,49,0.00,,---,0.00,VWS V13.01,2013-01-27 12:44:00,
2013-01-27 07:47:00,8.8,-6.5,29.68,ENE,68,1.1,1.1,49,0.00,,---,0.00,VWS V13.01,2013-01-27 12:47:00,
2013-01-27 07:48:00,8.8,-6.5,29.68,ENE,68,0.0,1.1,49,0.00,,---,0.00,VWS V13.01,2013-01-27 12:48:00,
2013-01-27 07:51:00,8.8,-6.5,29.68,NE,45,2.2,2.2,49,0.00,,---,0.00,VWS V13.01,2013-01-27 12:51:00,
2013-01-27 07:52:00,8.8,-6.5,29.71,NE,45,0.0,2.2,49,0.00,,---,0.00,VWS V13.01,2013-01-27 12:52:00,
2013-01-27 07:53:00,9.7,-5.6,29.71,NE,45,0.0,0.0,49,0.00,,---,0.00,VWS V13.01,2013-01-27 12:53:00,
2013-01-27 07:56:00,9.7,-5.6,29.71,East,90,0.0,0.0,49,0.00,,---,0.00,VWS V13.01,2013-01-27 12:56:00,
2013-01-27 07:57:00,9.7,-5.6,29.71,East,90,0.0,0.0,49,0.00,,---,0.00,VWS V13.01,2013-01-27 12:57:00,
2013-01-27 07:58:00,9.7,-5.6,29.71,East,90,0.0,0.0,49,0.00,,---,0.00,VWS V13.01,2013-01-27 12:58:00,
2013-01-27 08:01:00,10.8,-4.6,29.71,East,90,0.0,0.0,49,0.00,,---,0.00,VWS V13.01,2013-01-27 13:01:00,
2013-01-27 08:02:00,10.8,-4.6,29.71,East,90,0.0,0.0,49,0.00,,---,0.00,VWS V13.01,2013-01-27 13:02:00,
2013-01-27 08:03:00,10.8,-4.6,29.71,East,90,0.0,0.0,49,0.00,,---,0.00,VWS V13.01,2013-01-27 13:03:00,
2013-01-27 08:06:00,11.1,-4.3,29.71,East,90,0.0,0.0,49,0.00,,---,0.00,VWS V13.01,2013-01-27 13:06:00,
2013-01-27 08:07:00,11.3,-4.1,29.71,East,90,0.0,0.0,49,0.00,,---,0.00,VWS V13.01,2013-01-27 13:07:00,
2013-01-27 08:08:00,11.3,-4.1,29.71,ENE,68,0.0,0.0,49,0.00,,---,0.00,VWS V13.01,2013-01-27 13:08:00,
2013-01-27 08:10:00,11.3,-4.1,29.71,ENE,68,0.0,0.0,49,0.00,,---,0.00,VWS V13.01,2013-01-27 13:10:00,
2013-01-27 08:11:00,11.3,-4.1,29.71,WNW,292,2.2,2.2,49,0.00,,---,0.00,VWS V13.01,2013-01-27 13:11:00,
2013-01-27 08:12:00,11.3,-4.1,29.71,WSW,248,0.0,2.2,49,0.00,,---,0.00,VWS V13.01,2013-01-27 13:12:00,
2013-01-27 08:13:00,11.3,-4.1,29.71,WSW,248,0.0,2.2,49,0.00,,---,0.00,VWS V13.01,2013-01-27 13:13:00,
2013-01-27 08:15:00,11.3,-4.1,29.71,ENE,68,0.0,0.0,49,0.00,,---,0.00,VWS V13.01,2013-01-27 13:15:00,
2013-01-27 08:16:00,11.3,-4.1,29.71,NNE,22,0.0,0.0,49,0.00,,---,0.00,VWS V13.01,2013-01-27 13:16:00,
2013-01-27 08:18:00,11.3,-4.1,29.71,NNE,22,0.0,0.0,49,0.00,,---,0.00,VWS V13.01,2013-01-27 13:18:00,
2013-01-27 08:20:00,11.3,-4.1,29.71,NNW,338,1.1,1.3,49,0.00,,---,0.00,VWS V13.01,2013-01-27 13:20:00,
2013-01-27 08:21:00,11.3,-4.1,29.71,NNW,338,0.0,0.9,49,0.00,,---,0.00,VWS V13.01,2013-01-27 13:21:00,
2013-01-27 08:23:00,12.9,-2.6,29.71,NNW,338,0.0,0.0,49,0.00,,---,0.00,VWS V13.01,2013-01-27 13:23:00,
2013-01-27 08:25:00,12.9,-2.6,29.71,NNW,338,0.0,0.0,49,0.00,,---,0.00,VWS V13.01,2013-01-27 13:25:00,
2013-01-27 08:28:00,12.9,-2.6,29.71,North,0,0.0,1.6,49,0.00,,---,0.00,VWS V13.01,2013-01-27 13:28:00,
2013-01-27 08:30:00,12.9,-2.6,29.71,North,0,0.0,0.0,49,0.00,,---,0.00,VWS V13.01,2013-01-27 13:30:00,
2013-01-27 08:35:00,13.6,-2.0,29.71,WNW,292,0.9,0.9,49,0.00,,---,0.00,VWS V13.01,2013-01-27 13:35:00,
2013-01-27 08:36:00,13.6,-2.0,29.71,WNW,292,0.9,0.9,49,0.00,,---,0.00,VWS V13.01,2013-01-27 13:36:00,
2013-01-27 08:41:00,13.6,-2.0,29.71,West,270,0.0,0.0,49,0.00,,---,0.00,VWS V13.01,2013-01-27 13:41:00,
2013-01-27 08:46:00,14.5,4.2,29.71,SSW,202,0.0,0.0,63,0.00,,---,0.00,VWS V13.01,2013-01-27 13:46:00,
2013-01-27 08:51:00,14.5,4.2,29.71,NE,45,1.1,1.1,63,0.00,,---,0.00,VWS V13.01,2013-01-27 13:51:00,
2013-01-27 08:56:00,15.4,5.1,29.71,WSW,248,3.1,3.1,63,0.00,,---,0.00,VWS V13.01,2013-01-27 13:56:00,
2013-01-27 08:57:00,15.4,5.1,29.71,WSW,248,3.1,3.1,63,0.00,,---,0.00,VWS V13.01,2013-01-27 13:57:00,
2013-01-27 09:01:00,15.8,5.4,29.71,NE,45,1.1,1.1,63,0.00,,---,0.00,VWS V13.01,2013-01-27 14:01:00,
2013-01-27 09:02:00,15.8,5.4,29.71,SSW,202,1.3,1.3,63,0.00,,---,0.00,VWS V13.01,2013-01-27 14:02:00,
2013-01-27 09:07:00,15.8,5.4,29.71,West,270,1.3,1.3,63,0.00,,---,0.00,VWS V13.01,2013-01-27 14:07:00,
2013-01-27 09:12:00,15.8,5.4,29.71,ENE,68,0.0,0.0,63,0.00,,---,0.00,VWS V13.01,2013-01-27 14:12:00,
2013-01-27 09:17:00,15.8,5.4,29.71,West,270,2.9,2.9,63,0.00,,---,0.00,VWS V13.01,2013-01-27 14:17:00,
2013-01-27 09:22:00,17.1,5.9,29.71,NNE,22,4.3,4.3,61,0.00,,---,0.00,VWS V13.01,2013-01-27 14:22:00,
2013-01-27 09:27:00,17.1,5.9,29.71,WNW,292,1.1,1.3,61,0.00,,---,0.00,VWS V13.01,2013-01-27 14:27:00,
2013-01-27 09:32:00,17.1,5.9,29.71,West,270,2.5,2.5,61,0.00,,---,0.00,VWS V13.01,2013-01-27 14:32:00,
2013-01-27 09:33:00,17.1,5.9,29.71,WSW,248,3.6,3.6,61,0.00,,---,0.00,VWS V13.01,2013-01-27 14:33:00,
2013-01-27 09:37:00,17.1,5.9,29.71,NW,315,2.5,2.5,61,0.00,,---,0.00,VWS V13.01,2013-01-27 14:37:00,
2013-01-27 09:38:00,17.1,5.9,29.71,NW,315,2.5,2.5,61,0.00,,---,0.00,VWS V13.01,2013-01-27 14:38:00,
2013-01-27 09:42:00,17.1,5.9,29.71,North,0,3.4,3.4,61,0.00,,---,0.00,VWS V13.01,2013-01-27 14:42:00,
2013-01-27 09:43:00,17.1,5.9,29.71,North,0,3.4,3.4,61,0.00,,---,0.00,VWS V13.01,2013-01-27 14:43:00,
2013-01-27 09:47:00,19.2,7.2,29.71,West,270,1.6,2.9,59,0.00,,---,0.00,VWS V13.01,2013-01-27 14:47:00,
2013-01-27 09:48:00,19.2,7.2,29.71,West,270,1.6,2.9,59,0.00,,---,0.00,VWS V13.01,2013-01-27 14:48:00,
2013-01-27 09:55:00,19.4,7.4,29.71,WNW,292,1.1,1.6,59,0.00,,---,0.00,VWS V13.01,2013-01-27 14:55:00,
2013-01-27 10:00:00,19.4,7.4,29.71,NW,315,2.5,3.4,59,0.00,,---,0.00,VWS V13.01,2013-01-27 15:00:00,
2013-01-27 10:05:00,19.4,7.4,29.74,WNW,292,3.1,3.1,59,0.00,,---,0.00,VWS V13.01,2013-01-27 15:05:00,
2013-01-27 10:10:00,20.7,7.8,29.74,South,180,1.6,1.6,57,0.00,,---,0.00,VWS V13.01,2013-01-27 15:10:00,
2013-01-27 10:15:00,20.7,7.8,29.74,West,270,3.8,3.8,57,0.00,,---,0.00,VWS V13.01,2013-01-27 15:15:00,
2013-01-27 10:20:00,20.7,7.8,29.74,NNE,22,2.0,2.0,57,0.00,,---,0.00,VWS V13.01,2013-01-27 15:20:00,
2013-01-27 10:25:00,20.7,7.8,29.74,WNW,292,2.0,2.2,57,0.00,,---,0.00,VWS V13.01,2013-01-27 15:25:00,
2013-01-27 10:30:00,20.7,7.8,29.74,NNW,338,0.0,3.4,57,0.00,,---,0.00,VWS V13.01,2013-01-27 15:30:00,
2013-01-27 10:35:00,20.7,7.8,29.74,NNW,338,2.0,4.3,57,0.00,,---,0.00,VWS V13.01,2013-01-27 15:35:00,
2013-01-27 10:36:00,20.7,7.8,29.74,NNW,338,2.0,2.0,57,0.00,,---,0.00,VWS V13.01,2013-01-27 15:36:00,
2013-01-27 10:40:00,20.7,7.8,29.74,WNW,292,1.1,1.6,57,0.00,,---,0.00,VWS V13.01,2013-01-27 15:40:00,
2013-01-27 10:41:00,20.7,7.8,29.74,WSW,248,2.2,2.2,57,0.00,,---,0.00,VWS V13.01,2013-01-27 15:41:00,
2013-01-27 10:45:00,22.1,8.0,29.74,ENE,68,2.5,2.5,54,0.00,,---,0.00,VWS V13.01,2013-01-27 15:45:00,
2013-01-27 10:46:00,22.1,8.0,29.74,ENE,68,2.5,2.5,54,0.00,,---,0.00,VWS V13.01,2013-01-27 15:46:00,
2013-01-27 10:50:00,22.1,8.0,29.74,North,0,1.1,1.1,54,0.00,,---,0.00,VWS V13.01,2013-01-27 15:50:00,
2013-01-27 10:51:00,22.1,8.0,29.74,North,0,2.2,2.2,54,0.00,,---,0.00,VWS V13.01,2013-01-27 15:51:00,
2013-01-27 10:55:00,22.1,8.0,29.74,ENE,68,1.1,1.3,54,0.00,,---,0.00,VWS V13.01,2013-01-27 15:55:00,
2013-01-27 10:56:00,22.1,8.0,29.74,ENE,68,1.1,1.3,54,0.00,,---,0.00,VWS V13.01,2013-01-27 15:56:00,
2013-01-27 11:01:00,22.1,8.0,29.74,SSW,202,2.9,2.9,54,0.00,,---,0.00,VWS V13.01,2013-01-27 16:01:00,
2013-01-27 11:06:00,23.5,8.5,29.74,NW,315,2.7,2.7,52,0.00,,---,0.00,VWS V13.01,2013-01-27 16:06:00,
2013-01-27 11:07:00,23.5,8.5,29.74,NW,315,2.7,2.7,52,0.00,,---,0.00,VWS V13.01,2013-01-27 16:07:00,
2013-01-27 11:11:00,23.5,8.5,29.74,West,270,4.0,4.0,52,0.00,,---,0.00,VWS V13.01,2013-01-27 16:11:00,
2013-01-27 11:15:00,23.5,8.5,29.74,NNW,338,3.1,3.1,52,0.00,,---,0.00,VWS V13.01,2013-01-27 16:15:00,
2013-01-27 11:16:00,23.5,8.5,29.74,North,0,2.9,2.9,52,0.00,,---,0.00,VWS V13.01,2013-01-27 16:16:00,
2013-01-27 11:20:00,23.5,8.5,29.74,WNW,292,2.5,3.1,52,0.00,,---,0.00,VWS V13.01,2013-01-27 16:20:00,
2013-01-27 11:21:00,23.5,8.5,29.74,WNW,292,5.6,5.6,52,0.00,,---,0.00,VWS V13.01,2013-01-27 16:21:00,
2013-01-27 11:25:00,23.5,8.5,29.74,WNW,292,2.7,2.9,52,0.00,,---,0.00,VWS V13.01,2013-01-27 16:25:00,
2013-01-27 11:26:00,23.5,8.5,29.74,SW,225,2.5,2.7,52,0.00,,---,0.00,VWS V13.01,2013-01-27 16:26:00,
2013-01-27 11:30:00,24.6,9.1,29.74,WSW,248,5.6,5.6,51,0.00,,---,0.00,VWS V13.01,2013-01-27 16:30:00,
2013-01-27 11:31:00,24.6,9.1,29.74,WNW,292,2.7,5.6,51,0.00,,---,0.00,VWS V13.01,2013-01-27 16:31:00,
2013-01-27 11:35:00,24.6,8.6,29.74,North,0,2.5,3.6,50,0.00,,---,0.00,VWS V13.01,2013-01-27 16:35:00,
2013-01-27 11:36:00,24.8,8.8,29.74,North,0,2.0,2.5,50,0.00,,---,0.00,VWS V13.01,2013-01-27 16:36:00,
2013-01-27 11:40:00,24.8,8.8,29.74,East,90,2.5,2.5,50,0.00,,---,0.00,VWS V13.01,2013-01-27 16:40:00,
2013-01-27 11:41:00,24.8,8.8,29.74,NW,315,3.4,3.4,50,0.00,,---,0.00,VWS V13.01,2013-01-27 16:41:00,
2013-01-27 11:42:00,24.8,8.8,29.74,NW,315,3.4,3.4,50,0.00,,---,0.00,VWS V13.01,2013-01-27 16:42:00,
2013-01-27 11:45:00,24.8,8.8,29.74,West,270,2.9,2.9,50,0.00,,---,0.00,VWS V13.01,2013-01-27 16:45:00,
2013-01-27 11:46:00,24.8,8.8,29.74,WSW,248,2.7,2.7,50,0.00,,---,0.00,VWS V13.01,2013-01-27 16:46:00,
2013-01-27 11:47:00,24.8,8.8,29.74,NNE,22,1.6,2.7,50,0.00,,---,0.00,VWS V13.01,2013-01-27 16:47:00,
2013-01-27 11:50:00,25.3,8.9,29.74,West,270,1.6,2.0,49,0.00,,---,0.00,VWS V13.01,2013-01-27 16:50:00,
2013-01-27 11:51:00,25.3,8.9,29.74,WNW,292,4.9,4.9,49,0.00,,---,0.00,VWS V13.01,2013-01-27 16:51:00,
2013-01-27 11:52:00,25.3,8.9,29.74,WNW,292,4.9,4.9,49,0.00,,---,0.00,VWS V13.01,2013-01-27 16:52:00,
2013-01-27 11:55:00,25.5,8.1,29.74,NE,45,4.9,4.9,47,0.00,,---,0.00,VWS V13.01,2013-01-27 16:55:00,
2013-01-27 11:57:00,25.5,8.1,29.74,NE,45,2.9,2.9,47,0.00,,---,0.00,VWS V13.01,2013-01-27 16:57:00,
2013-01-27 12:00:00,25.3,7.9,29.74,WNW,292,0.9,0.9,47,0.00,,---,0.00,VWS V13.01,2013-01-27 17:00:00,
2013-01-27 12:02:00,25.7,8.3,29.74,West,270,3.6,3.6,47,0.00,,---,0.00,VWS V13.01,2013-01-27 17:02:00,
2013-01-27 12:03:00,25.7,8.3,29.74,West,270,3.6,3.6,47,0.00,,---,0.00,VWS V13.01,2013-01-27 17:03:00,
2013-01-27 12:06:00,25.7,8.3,29.74,WNW,292,0.0,0.0,47,0.00,,---,0.00,VWS V13.01,2013-01-27 17:06:00,
2013-01-27 12:07:00,25.7,8.3,29.74,WSW,248,2.9,2.9,47,0.00,,---,0.00,VWS V13.01,2013-01-27 17:07:00,
2013-01-27 12:08:00,25.7,8.3,29.74,SSW,202,2.5,2.9,47,0.00,,---,0.00,VWS V13.01,2013-01-27 17:08:00,
2013-01-27 12:11:00,25.7,8.3,29.74,ENE,68,2.9,2.9,47,0.00,,---,0.00,VWS V13.01,2013-01-27 17:11:00,
2013-01-27 12:12:00,25.7,8.3,29.74,West,270,1.3,1.3,47,0.00,,---,0.00,VWS V13.01,2013-01-27 17:12:00,
2013-01-27 12:13:00,25.7,8.3,29.74,West,270,1.3,1.3,47,0.00,,---,0.00,VWS V13.01,2013-01-27 17:13:00,
2013-01-27 12:16:00,25.7,8.3,29.74,SSW,202,0.0,1.3,47,0.00,,---,0.00,VWS V13.01,2013-01-27 17:16:00,
2013-01-27 12:17:00,25.7,8.3,29.74,WSW,248,2.0,2.0,47,0.00,,---,0.00,VWS V13.01,2013-01-27 17:17:00,
2013-01-27 12:18:00,26.8,8.8,29.74,NNE,22,2.0,2.0,46,0.00,,---,0.00,VWS V13.01,2013-01-27 17:18:00,
2013-01-27 12:24:00,26.8,8.8,29.71,WSW,248,0.0,0.0,46,0.00,,---,0.00,VWS V13.01,2013-01-27 17:24:00,
2013-01-27 12:29:00,27.0,8.5,29.71,East,90,1.6,3.4,45,0.00,,---,0.00,VWS V13.01,2013-01-27 17:29:00,
2013-01-27 12:34:00,27.0,8.5,29.71,WSW,248,1.1,4.3,45,0.00,,---,0.00,VWS V13.01,2013-01-27 17:34:00,
2013-01-27 12:39:00,27.0,8.5,29.71,WSW,248,3.1,3.1,45,0.00,,---,0.00,VWS V13.01,2013-01-27 17:39:00,
2013-01-27 12:44:00,27.0,8.5,29.71,North,0,2.9,2.9,45,0.00,,---,0.00,VWS V13.01,2013-01-27 17:44:00,
2013-01-27 12:45:00,27.0,8.5,29.71,North,0,3.4,3.4,45,0.00,,---,0.00,VWS V13.01,2013-01-27 17:45:00,
2013-01-27 12:49:00,27.5,8.5,29.71,West,270,1.6,1.6,44,0.00,,---,0.00,VWS V13.01,2013-01-27 17:49:00,
2013-01-27 12:50:00,27.5,8.5,29.71,West,270,1.6,1.6,44,0.00,,---,0.00,VWS V13.01,2013-01-27 17:50:00,
2013-01-27 12:54:00,27.7,8.6,29.71,West,270,3.1,3.1,44,0.00,,---,0.00,VWS V13.01,2013-01-27 17:54:00,
2013-01-27 12:55:00,27.7,8.6,29.71,West,270,3.1,3.1,44,0.00,,---,0.00,VWS V13.01,2013-01-27 17:55:00,
2013-01-27 13:00:00,27.7,8.6,29.71,West,270,2.9,3.4,44,0.00,,---,0.00,VWS V13.01,2013-01-27 18:00:00,
2013-01-27 13:05:00,27.7,8.6,29.71,NNE,22,0.0,1.1,44,0.00,,---,0.00,VWS V13.01,2013-01-27 18:05:00,
2013-01-27 13:10:00,27.9,8.3,29.71,North,0,2.9,2.9,43,0.00,,---,0.00,VWS V13.01,2013-01-27 18:10:00,
2013-01-27 13:15:00,27.9,8.3,29.71,WSW,248,4.9,4.9,43,0.00,,---,0.00,VWS V13.01,2013-01-27 18:15:00,
2013-01-27 13:20:00,28.2,8.6,29.71,West,270,2.7,2.7,43,0.00,,---,0.00,VWS V13.01,2013-01-27 18:20:00,
2013-01-27 13:25:00,28.2,8.6,29.71,NNE,22,4.0,4.0,43,0.00,,---,0.00,VWS V13.01,2013-01-27 18:25:00,
2013-01-27 13:29:00,28.4,8.8,29.71,WSW,248,1.3,2.9,43,0.00,,---,0.00,VWS V13.01,2013-01-27 18:29:00,
2013-01-27 13:31:00,28.4,8.8,29.71,NNW,338,2.5,2.9,43,0.00,,---,0.00,VWS V13.01,2013-01-27 18:31:00,
2013-01-27 13:34:00,28.6,8.4,29.71,NE,45,3.6,3.6,42,0.00,,---,0.00,VWS V13.01,2013-01-27 18:34:00,
2013-01-27 13:37:00,28.6,8.4,29.71,West,270,5.4,5.4,42,0.00,,---,0.00,VWS V13.01,2013-01-27 18:37:00,
2013-01-27 13:39:00,28.9,8.7,29.71,NW,315,2.0,2.5,42,0.00,,---,0.00,VWS V13.01,2013-01-27 18:39:00,
2013-01-27 13:42:00,28.9,8.7,29.71,NW,315,2.5,3.8,42,0.00,,---,0.00,VWS V13.01,2013-01-27 18:42:00,
2013-01-27 13:44:00,28.9,8.7,29.71,East,90,3.1,3.1,42,0.00,,---,0.00,VWS V13.01,2013-01-27 18:44:00,
2013-01-27 13:47:00,28.9,8.7,29.71,North,0,2.5,3.1,42,0.00,,---,0.00,VWS V13.01,2013-01-27 18:47:00,
2013-01-27 13:49:00,28.9,8.7,29.71,NE,45,2.5,2.5,42,0.00,,---,0.00,VWS V13.01,2013-01-27 18:49:00,
2013-01-27 13:52:00,28.9,8.7,29.68,ENE,68,3.1,3.1,42,0.00,,---,0.00,VWS V13.01,2013-01-27 18:52:00,
2013-01-27 13:53:00,28.9,8.7,29.68,ENE,68,3.1,3.1,42,0.00,,---,0.00,VWS V13.01,2013-01-27 18:53:00,
2013-01-27 13:58:00,28.9,8.7,29.68,West,270,1.1,1.6,42,0.00,,---,0.00,VWS V13.01,2013-01-27 18:58:00,
2013-01-27 14:03:00,28.9,8.7,29.68,NNE,22,4.0,4.0,42,0.00,,---,0.00,VWS V13.01,2013-01-27 19:03:00,
2013-01-27 14:04:00,29.3,9.1,29.68,NNE,22,4.0,4.0,42,0.00,,---,0.00,VWS V13.01,2013-01-27 19:04:00,
2013-01-27 14:08:00,29.1,8.9,29.71,NE,45,4.0,4.0,42,0.00,,---,0.00,VWS V13.01,2013-01-27 19:08:00,
2013-01-27 14:09:00,29.1,8.9,29.71,ENE,68,0.0,4.0,42,0.00,,---,0.00,VWS V13.01,2013-01-27 19:09:00,
2013-01-27 14:13:00,29.3,9.1,29.71,South,180,3.4,3.4,42,0.00,,---,0.00,VWS V13.01,2013-01-27 19:13:00,
2013-01-27 14:14:00,29.3,9.1,29.71,South,180,3.4,3.4,42,0.00,,---,0.00,VWS V13.01,2013-01-27 19:14:00,
2013-01-27 14:18:00,29.5,9.2,29.71,North,0,1.6,1.6,42,0.00,,---,0.00,VWS V13.01,2013-01-27 19:18:00,
2013-01-27 14:19:00,29.5,9.2,29.71,North,0,1.6,1.6,42,0.00,,---,0.00,VWS V13.01,2013-01-27 19:19:00,
2013-01-27 14:24:00,29.5,9.2,29.71,WSW,248,3.1,3.6,42,0.00,,---,0.00,VWS V13.01,2013-01-27 19:24:00,
2013-01-27 14:29:00,29.5,9.2,29.71,NNE,22,3.4,3.4,42,0.00,,---,0.00,VWS V13.01,2013-01-27 19:29:00,
2013-01-27 14:34:00,29.5,9.2,29.71,West,270,4.9,4.9,42,0.00,,---,0.00,VWS V13.01,2013-01-27 19:34:00,
2013-01-27 14:39:00,29.8,9.0,29.71,North,0,1.3,2.9,41,0.00,,---,0.00,VWS V13.01,2013-01-27 19:39:00,
2013-01-27 14:44:00,29.8,9.0,29.71,NE,45,2.5,2.5,41,0.00,,---,0.00,VWS V13.01,2013-01-27 19:44:00,
2013-01-27 14:49:00,29.8,9.0,29.71,North,0,2.7,2.7,41,0.00,,---,0.00,VWS V13.01,2013-01-27 19:49:00,
2013-01-27 14:51:00,29.8,9.0,29.71,NNW,338,2.7,2.7,41,0.00,,---,0.00,VWS V13.01,2013-01-27 19:51:00,
2013-01-27 14:54:00,29.8,9.0,29.71,North,0,2.5,3.1,41,0.00,,---,0.00,VWS V13.01,2013-01-27 19:54:00,
2013-01-27 14:56:00,29.8,9.0,29.71,NNW,338,0.9,0.9,41,0.00,,---,0.00,VWS V13.01,2013-01-27 19:56:00,
2013-01-27 14:59:00,29.8,9.0,29.71,ESE,112,0.9,0.9,41,0.00,,---,0.00,VWS V13.01,2013-01-27 19:59:00,
2013-01-27 15:01:00,29.8,9.0,29.71,West,270,1.3,2.9,41,0.00,,---,0.00,VWS V13.01,2013-01-27 20:01:00,
2013-01-27 15:04:00,29.8,9.0,29.71,NNW,338,2.9,2.9,41,0.00,,---,0.00,VWS V13.01,2013-01-27 20:04:00,
2013-01-27 15:06:00,29.8,9.0,29.71,NE,45,2.7,3.1,41,0.00,,---,0.00,VWS V13.01,2013-01-27 20:06:00,
2013-01-27 15:07:00,29.8,9.0,29.71,NE,45,2.7,3.1,41,0.00,,---,0.00,VWS V13.01,2013-01-27 20:07:00,
2013-01-27 15:09:00,29.8,9.0,29.71,South,180,0.0,0.0,41,0.00,,---,0.00,VWS V13.01,2013-01-27 20:09:00,
2013-01-27 15:12:00,29.8,9.0,29.71,NNE,22,2.0,2.0,41,0.00,,---,0.00,VWS V13.01,2013-01-27 20:12:00,
2013-01-27 15:14:00,29.8,9.0,29.71,North,0,2.0,2.0,41,0.00,,---,0.00,VWS V13.01,2013-01-27 20:14:00,
2013-01-27 15:17:00,29.8,9.0,29.71,WSW,248,2.9,2.9,41,0.00,,---,0.00,VWS V13.01,2013-01-27 20:17:00,
2013-01-27 15:19:00,29.8,9.0,29.71,NNW,338,2.5,2.5,41,0.00,,---,0.00,VWS V13.01,2013-01-27 20:19:00,
2013-01-27 15:22:00,29.8,9.0,29.71,West,270,0.9,2.5,41,0.00,,---,0.00,VWS V13.01,2013-01-27 20:22:00,
2013-01-27 15:25:00,29.8,9.0,29.71,WNW,292,0.0,2.2,41,0.00,,---,0.00,VWS V13.01,2013-01-27 20:25:00,
2013-01-27 15:27:00,29.8,9.0,29.71,NE,45,0.0,0.0,41,0.00,,---,0.00,VWS V13.01,2013-01-27 20:27:00,
2013-01-27 15:30:00,29.8,9.0,29.71,NNE,22,1.3,1.3,41,0.00,,---,0.00,VWS V13.01,2013-01-27 20:30:00,
2013-01-27 15:32:00,29.8,9.0,29.71,NE,45,0.0,2.0,41,0.00,,---,0.00,VWS V13.01,2013-01-27 20:32:00,
2013-01-27 15:33:00,29.8,9.0,29.71,NE,45,0.0,0.0,41,0.00,,---,0.00,VWS V13.01,2013-01-27 20:33:00,
2013-01-27 15:35:00,29.8,9.0,29.71,ENE,68,2.5,3.6,41,0.00,,---,0.00,VWS V13.01,2013-01-27 20:35:00,
2013-01-27 15:38:00,29.8,9.0,29.71,NNW,338,1.1,2.7,41,0.00,,---,0.00,VWS V13.01,2013-01-27 20:38:00,
2013-01-27 15:40:00,29.8,9.0,29.71,WNW,292,2.2,2.2,41,0.00,,---,0.00,VWS V13.01,2013-01-27 20:40:00,
2013-01-27 15:43:00,29.8,9.0,29.71,WSW,248,5.6,5.6,41,0.00,,---,0.00,VWS V13.01,2013-01-27 20:43:00,
2013-01-27 15:45:00,29.8,9.0,29.71,NE,45,0.9,0.9,41,0.00,,---,0.00,VWS V13.01,2013-01-27 20:45:00,
2013-01-27 15:48:00,29.8,9.0,29.71,NE,45,2.2,2.2,41,0.00,,---,0.00,VWS V13.01,2013-01-27 20:48:00,
2013-01-27 15:50:00,29.8,9.0,29.71,East,90,1.3,1.3,41,0.00,,---,0.00,VWS V13.01,2013-01-27 20:50:00,
2013-01-27 15:53:00,29.8,9.0,29.71,North,0,0.0,1.3,41,0.00,,---,0.00,VWS V13.01,2013-01-27 20:53:00,
2013-01-27 15:55:00,29.8,9.0,29.71,WSW,248,2.7,2.7,41,0.00,,---,0.00,VWS V13.01,2013-01-27 20:55:00,
2013-01-27 15:58:00,29.8,9.0,29.71,West,270,1.6,1.6,41,0.00,,---,0.00,VWS V13.01,2013-01-27 20:58:00,
2013-01-27 16:00:00,29.8,9.0,29.71,North,0,1.1,1.1,41,0.00,,---,0.00,VWS V13.01,2013-01-27 21:00:00,
2013-01-27 16:03:00,29.7,8.9,29.71,North,0,1.6,2.5,41,0.00,,---,0.00,VWS V13.01,2013-01-27 21:03:00,
2013-01-27 16:05:00,29.7,8.9,29.71,NNW,338,0.0,1.3,41,0.00,,---,0.00,VWS V13.01,2013-01-27 21:05:00,
2013-01-27 16:08:00,29.7,8.9,29.71,NE,45,0.9,0.9,41,0.00,,---,0.00,VWS V13.01,2013-01-27 21:08:00,
2013-01-27 16:11:00,29.5,8.7,29.71,South,180,2.0,2.7,41,0.00,,---,0.00,VWS V13.01,2013-01-27 21:11:00,
2013-01-27 16:12:00,29.5,8.7,29.71,NNE,22,2.2,2.2,41,0.00,,---,0.00,VWS V13.01,2013-01-27 21:12:00,
2013-01-27 16:14:00,29.5,8.7,29.71,East,90,0.0,0.0,41,0.00,,---,0.00,VWS V13.01,2013-01-27 21:14:00,
2013-01-27 16:16:00,29.5,8.7,29.71,SE,135,0.0,0.0,41,0.00,,---,0.00,VWS V13.01,2013-01-27 21:16:00,
2013-01-27 16:17:00,29.5,8.7,29.71,NNE,22,0.9,0.9,41,0.00,,---,0.00,VWS V13.01,2013-01-27 21:17:00,
2013-01-27 16:19:00,29.5,8.7,29.71,WSW,248,2.0,2.0,41,0.00,,---,0.00,VWS V13.01,2013-01-27 21:19:00,
2013-01-27 16:21:00,29.1,8.4,29.71,West,270,1.3,1.3,41,0.00,,---,0.00,VWS V13.01,2013-01-27 21:21:00,
2013-01-27 16:22:00,29.1,8.4,29.71,West,270,1.1,1.1,41,0.00,,---,0.00,VWS V13.01,2013-01-27 21:22:00,
2013-01-27 16:24:00,28.8,8.6,29.71,SW,225,0.0,0.0,42,0.00,,---,0.00,VWS V13.01,2013-01-27 21:24:00,
2013-01-27 16:26:00,28.6,8.4,29.71,WSW,248,2.7,2.7,42,0.00,,---,0.00,VWS V13.01,2013-01-27 21:26:00,
2013-01-27 16:27:00,28.6,8.4,29.71,NNW,338,1.3,2.7,42,0.00,,---,0.00,VWS V13.01,2013-01-27 21:27:00,
2013-01-27 16:29:00,28.6,8.4,29.71,West,270,0.0,0.0,42,0.00,,---,0.00,VWS V13.01,2013-01-27 21:29:00,
2013-01-27 16:31:00,28.6,8.4,29.71,ESE,112,0.0,0.0,42,0.00,,---,0.00,VWS V13.01,2013-01-27 21:31:00,
2013-01-27 16:33:00,28.6,8.4,29.71,ESE,112,0.0,0.0,42,0.00,,---,0.00,VWS V13.01,2013-01-27 21:33:00,
2013-01-27 16:34:00,28.6,8.4,29.71,East,90,0.0,0.0,42,0.00,,---,0.00,VWS V13.01,2013-01-27 21:34:00,
2013-01-27 16:37:00,28.6,8.4,29.71,ESE,112,0.0,0.0,42,0.00,,---,0.00,VWS V13.01,2013-01-27 21:37:00,
2013-01-27 16:38:00,28.6,8.4,29.71,ESE,112,0.0,0.0,42,0.00,,---,0.00,VWS V13.01,2013-01-27 21:38:00,
2013-01-27 16:39:00,28.6,8.4,29.71,ESE,112,0.0,0.0,42,0.00,,---,0.00,VWS V13.01,2013-01-27 21:39:00,
2013-01-27 16:42:00,28.6,8.4,29.71,ESE,112,0.0,0.0,42,0.00,,---,0.00,VWS V13.01,2013-01-27 21:42:00,
2013-01-27 16:43:00,28.6,8.4,29.71,West,270,0.9,0.9,42,0.00,,---,0.00,VWS V13.01,2013-01-27 21:43:00,
2013-01-27 16:44:00,28.6,8.4,29.71,SSE,158,0.0,0.9,42,0.00,,---,0.00,VWS V13.01,2013-01-27 21:44:00,
2013-01-27 16:45:00,28.6,8.4,29.71,SSE,158,0.0,0.0,42,0.00,,---,0.00,VWS V13.01,2013-01-27 21:45:00,
2013-01-27 16:47:00,28.6,8.4,29.71,SSE,158,0.0,0.0,42,0.00,,---,0.00,VWS V13.01,2013-01-27 21:47:00,
2013-01-27 16:48:00,28.6,8.4,29.71,SSE,158,0.0,0.0,42,0.00,,---,0.00,VWS V13.01,2013-01-27 21:48:00,
2013-01-27 16:49:00,28.6,8.4,29.71,SSE,158,0.0,0.0,42,0.00,,---,0.00,VWS V13.01,2013-01-27 21:49:00,
2013-01-27 16:50:00,27.1,7.1,29.71,SSE,158,0.0,0.0,42,0.00,,---,0.00,VWS V13.01,2013-01-27 21:50:00,
2013-01-27 16:52:00,27.1,7.1,29.71,SSE,158,0.0,0.0,42,0.00,,---,0.00,VWS V13.01,2013-01-27 21:52:00,
2013-01-27 16:53:00,27.1,7.1,29.71,SSE,158,0.0,0.0,42,0.00,,---,0.00,VWS V13.01,2013-01-27 21:53:00,
2013-01-27 16:54:00,27.0,7.5,29.71,SSE,158,0.0,0.0,43,0.00,,---,0.00,VWS V13.01,2013-01-27 21:54:00,
2013-01-27 16:55:00,27.0,7.5,29.71,SE,135,0.0,0.0,43,0.00,,---,0.00,VWS V13.01,2013-01-27 21:55:00,
2013-01-27 16:57:00,27.0,7.5,29.71,SE,135,0.0,0.0,43,0.00,,---,0.00,VWS V13.01,2013-01-27 21:57:00,
2013-01-27 16:58:00,27.0,7.5,29.71,ESE,112,0.0,0.0,43,0.00,,---,0.00,VWS V13.01,2013-01-27 21:58:00,
2013-01-27 16:59:00,27.0,7.5,29.71,ESE,112,0.0,0.0,43,0.00,,---,0.00,VWS V13.01,2013-01-27 21:59:00,
2013-01-27 17:00:00,27.0,7.5,29.71,ESE,112,0.0,0.0,43,0.00,,---,0.00,VWS V13.01,2013-01-27 22:00:00,
2013-01-27 17:02:00,27.0,7.5,29.71,ESE,112,0.0,0.0,43,0.00,,---,0.00,VWS V13.01,2013-01-27 22:02:00,
2013-01-27 17:03:00,27.0,7.5,29.71,ESE,112,0.0,0.0,43,0.00,,---,0.00,VWS V13.01,2013-01-27 22:03:00,
2013-01-27 17:04:00,27.0,7.5,29.71,ESE,112,0.0,0.0,43,0.00,,---,0.00,VWS V13.01,2013-01-27 22:04:00,
2013-01-27 17:05:00,27.0,7.5,29.71,ESE,112,0.0,0.0,43,0.00,,---,0.00,VWS V13.01,2013-01-27 22:05:00,
2013-01-27 17:07:00,27.0,7.5,29.74,ESE,112,0.0,0.0,43,0.00,,---,0.00,VWS V13.01,2013-01-27 22:07:00,
2013-01-27 17:08:00,27.0,7.5,29.74,ESE,112,0.0,0.0,43,0.00,,---,0.00,VWS V13.01,2013-01-27 22:08:00,
2013-01-27 17:09:00,27.0,7.5,29.74,SE,135,0.0,0.0,43,0.00,,---,0.00,VWS V13.01,2013-01-27 22:09:00,
2013-01-27 17:10:00,27.0,7.5,29.74,SE,135,0.0,0.0,43,0.00,,---,0.00,VWS V13.01,2013-01-27 22:10:00,
2013-01-27 17:12:00,27.0,7.5,29.74,SE,135,0.0,0.0,43,0.00,,---,0.00,VWS V13.01,2013-01-27 22:12:00,
2013-01-27 17:13:00,27.0,7.5,29.74,SE,135,0.0,0.0,43,0.00,,---,0.00,VWS V13.01,2013-01-27 22:13:00,
2013-01-27 17:14:00,25.7,6.8,29.74,SE,135,0.0,0.0,44,0.00,,---,0.00,VWS V13.01,2013-01-27 22:14:00,
2013-01-27 17:16:00,25.7,6.8,29.74,SE,135,0.0,0.0,44,0.00,,---,0.00,VWS V13.01,2013-01-27 22:16:00,
2013-01-27 17:17:00,25.7,6.8,29.74,SE,135,0.0,0.0,44,0.00,,---,0.00,VWS V13.01,2013-01-27 22:17:00,
2013-01-27 17:18:00,25.7,6.8,29.74,SE,135,0.0,0.0,44,0.00,,---,0.00,VWS V13.01,2013-01-27 22:18:00,
2013-01-27 17:19:00,25.7,6.8,29.74,SE,135,0.0,0.0,44,0.00,,---,0.00,VWS V13.01,2013-01-27 22:19:00,
2013-01-27 17:21:00,25.5,6.7,29.74,ENE,68,0.0,0.0,44,0.00,,---,0.00,VWS V13.01,2013-01-27 22:21:00,
2013-01-27 17:22:00,25.5,6.7,29.74,ENE,68,0.0,0.0,44,0.00,,---,0.00,VWS V13.01,2013-01-27 22:22:00,
2013-01-27 17:23:00,25.5,6.7,29.74,ENE,68,0.0,0.0,44,0.00,,---,0.00,VWS V13.01,2013-01-27 22:23:00,
2013-01-27 17:24:00,25.5,6.7,29.74,ENE,68,0.0,0.0,44,0.00,,---,0.00,VWS V13.01,2013-01-27 22:24:00,
2013-01-27 17:26:00,25.5,6.7,29.74,ENE,68,0.0,0.0,44,0.00,,---,0.00,VWS V13.01,2013-01-27 22:26:00,
2013-01-27 17:27:00,25.5,6.7,29.74,East,90,0.0,0.0,44,0.00,,---,0.00,VWS V13.01,2013-01-27 22:27:00,
2013-01-27 17:28:00,25.5,6.7,29.74,East,90,0.0,0.0,44,0.00,,---,0.00,VWS V13.01,2013-01-27 22:28:00,
2013-01-27 17:30:00,25.5,6.7,29.74,East,90,0.0,0.0,44,0.00,,---,0.00,VWS V13.01,2013-01-27 22:30:00,
2013-01-27 17:31:00,25.5,6.7,29.74,East,90,0.0,0.0,44,0.00,,---,0.00,VWS V13.01,2013-01-27 22:31:00,
2013-01-27 17:32:00,25.5,6.7,29.74,East,90,0.0,0.0,44,0.00,,---,0.00,VWS V13.01,2013-01-27 22:32:00,
2013-01-27 17:33:00,25.5,6.7,29.74,East,90,0.0,0.0,44,0.00,,---,0.00,VWS V13.01,2013-01-27 22:33:00,
2013-01-27 17:35:00,25.5,6.7,29.74,East,90,0.0,0.0,44,0.00,,---,0.00,VWS V13.01,2013-01-27 22:35:00,
2013-01-27 17:36:00,24.8,6.5,29.74,East,90,0.0,0.0,45,0.00,,---,0.00,VWS V13.01,2013-01-27 22:36:00,
2013-01-27 17:38:00,24.8,6.5,29.74,East,90,0.0,0.0,45,0.00,,---,0.00,VWS V13.01,2013-01-27 22:38:00,
2013-01-27 17:40:00,24.8,6.5,29.74,East,90,0.0,0.0,45,0.00,,---,0.00,VWS V13.01,2013-01-27 22:40:00,
2013-01-27 17:42:00,24.8,6.5,29.74,East,90,0.0,0.0,45,0.00,,---,0.00,VWS V13.01,2013-01-27 22:42:00,
2013-01-27 17:43:00,24.8,6.5,29.74,East,90,0.0,0.0,45,0.00,,---,0.00,VWS V13.01,2013-01-27 22:43:00,
2013-01-27 17:48:00,24.4,6.6,29.74,East,90,0.0,0.0,46,0.00,,---,0.00,VWS V13.01,2013-01-27 22:48:00,
2013-01-27 17:53:00,24.4,6.6,29.74,East,90,0.0,0.0,46,0.00,,---,0.00,VWS V13.01,2013-01-27 22:53:00,
2013-01-27 17:58:00,24.4,6.6,29.74,East,90,0.0,0.0,46,0.00,,---,0.00,VWS V13.01,2013-01-27 22:58:00,
2013-01-27 17:59:00,24.4,6.6,29.74,East,90,0.0,0.0,46,0.00,,---,0.00,VWS V13.01,2013-01-27 22:59:00,
2013-01-27 18:03:00,24.4,6.6,29.74,East,90,0.0,0.0,46,0.00,,---,0.00,VWS V13.01,2013-01-27 23:03:00,
2013-01-27 18:04:00,24.4,6.6,29.74,East,90,0.0,0.0,46,0.00,,---,0.00,VWS V13.01,2013-01-27 23:04:00,
2013-01-27 18:08:00,23.5,5.8,29.74,East,90,0.0,0.0,46,0.00,,---,0.00,VWS V13.01,2013-01-27 23:08:00,
2013-01-27 18:09:00,23.5,5.8,29.74,East,90,0.0,0.0,46,0.00,,---,0.00,VWS V13.01,2013-01-27 23:09:00,
2013-01-27 18:13:00,23.5,6.3,29.74,East,90,0.0,0.0,47,0.00,,---,0.00,VWS V13.01,2013-01-27 23:13:00,
2013-01-27 18:14:00,23.5,6.3,29.74,East,90,0.0,0.0,47,0.00,,---,0.00,VWS V13.01,2013-01-27 23:14:00,
2013-01-27 18:19:00,23.5,6.3,29.74,East,90,0.0,0.0,47,0.00,,---,0.00,VWS V13.01,2013-01-27 23:19:00,
2013-01-27 18:24:00,23.5,6.3,29.74,East,90,0.0,0.0,47,0.00,,---,0.00,VWS V13.01,2013-01-27 23:24:00,
2013-01-27 18:29:00,23.5,6.3,29.74,East,90,0.0,0.0,47,0.00,,---,0.00,VWS V13.01,2013-01-27 23:29:00,
2013-01-27 18:34:00,23.5,6.3,29.74,East,90,0.0,0.0,47,0.00,,---,0.00,VWS V13.01,2013-01-27 23:34:00,
2013-01-27 18:35:00,23.5,6.3,29.74,East,90,0.0,0.0,47,0.00,,---,0.00,VWS V13.01,2013-01-27 23:35:00,
2013-01-27 18:39:00,23.5,6.3,29.74,East,90,0.0,0.0,47,0.00,,---,0.00,VWS V13.01,2013-01-27 23:39:00,
2013-01-27 18:40:00,22.6,6.4,29.74,ESE,112,0.0,0.0,49,0.00,,---,0.00,VWS V13.01,2013-01-27 23:40:00,
2013-01-27 18:44:00,22.6,6.4,29.74,SE,135,0.0,0.0,49,0.00,,---,0.00,VWS V13.01,2013-01-27 23:44:00,
2013-01-27 18:45:00,22.6,6.4,29.74,SE,135,0.0,0.0,49,0.00,,---,0.00,VWS V13.01,2013-01-27 23:45:00,
2013-01-27 18:50:00,22.6,6.4,29.74,SE,135,0.0,0.0,49,0.00,,---,0.00,VWS V13.01,2013-01-27 23:50:00,
2013-01-27 18:55:00,22.5,7.1,29.74,SE,135,0.0,0.0,51,0.00,,---,0.00,VWS V13.01,2013-01-27 23:55:00,
2013-01-27 18:58:00,22.5,7.1,29.74,SE,135,0.0,0.0,51,0.00,,---,0.00,VWS V13.01,2013-01-27 23:58:00,
2013-01-27 19:00:00,22.3,7.3,29.74,SE,135,0.0,0.0,52,0.00,,---,0.00,VWS V13.01,2013-01-28 00:00:00,
2013-01-27 19:03:00,22.3,7.3,29.74,SE,135,0.0,0.0,52,0.00,,---,0.00,VWS V13.01,2013-01-28 00:03:00,
2013-01-27 19:04:00,22.3,7.3,29.74,SE,135,0.0,0.0,52,0.00,,---,0.00,VWS V13.01,2013-01-28 00:04:00,
2013-01-27 19:05:00,22.3,7.3,29.74,SE,135,0.0,0.0,52,0.00,,---,0.00,VWS V13.01,2013-01-28 00:05:00,
2013-01-27 19:08:00,22.3,7.3,29.74,SE,135,0.0,0.0,52,0.00,,---,0.00,VWS V13.01,2013-01-28 00:08:00,
2013-01-27 19:09:00,22.3,7.3,29.74,SE,135,0.0,0.0,52,0.00,,---,0.00,VWS V13.01,2013-01-28 00:09:00,
2013-01-27 19:10:00,22.3,7.3,29.74,SE,135,0.0,0.0,52,0.00,,---,0.00,VWS V13.01,2013-01-28 00:10:00,
2013-01-27 19:14:00,22.3,7.3,29.74,SE,135,0.0,0.0,52,0.00,,---,0.00,VWS V13.01,2013-01-28 00:14:00,
2013-01-27 19:15:00,22.3,7.3,29.74,SSW,202,0.0,0.0,52,0.00,,---,0.00,VWS V13.01,2013-01-28 00:15:00,
2013-01-27 19:19:00,22.3,7.3,29.74,SSE,158,0.0,0.0,52,0.00,,---,0.00,VWS V13.01,2013-01-28 00:19:00,
2013-01-27 19:20:00,22.3,7.3,29.74,SSE,158,0.0,0.0,52,0.00,,---,0.00,VWS V13.01,2013-01-28 00:20:00,
2013-01-27 19:24:00,22.1,7.6,29.74,SSE,158,0.0,0.0,53,0.00,,---,0.00,VWS V13.01,2013-01-28 00:24:00,
2013-01-27 19:25:00,22.1,7.6,29.74,SSE,158,0.0,0.0,53,0.00,,---,0.00,VWS V13.01,2013-01-28 00:25:00,
2013-01-27 19:29:00,22.1,7.6,29.74,SSE,158,0.0,0.0,53,0.00,,---,0.00,VWS V13.01,2013-01-28 00:29:00,
2013-01-27 19:30:00,22.1,7.6,29.74,SSE,158,0.0,0.0,53,0.00,,---,0.00,VWS V13.01,2013-01-28 00:30:00,
2013-01-27 19:34:00,22.1,7.6,29.74,East,90,0.0,0.0,53,0.00,,---,0.00,VWS V13.01,2013-01-28 00:34:00,
2013-01-27 19:35:00,22.1,7.6,29.74,East,90,0.0,0.0,53,0.00,,---,0.00,VWS V13.01,2013-01-28 00:35:00,
2013-01-27 19:43:00,21.9,7.4,29.74,SE,135,0.0,0.0,53,0.00,,---,0.00,VWS V13.01,2013-01-28 00:43:00,
2013-01-27 19:48:00,21.9,7.4,29.74,SE,135,0.0,0.0,53,0.00,,---,0.00,VWS V13.01,2013-01-28 00:48:00,
2013-01-27 19:56:00,21.9,7.4,29.74,SE,135,0.0,0.0,53,0.00,,---,0.00,VWS V13.01,2013-01-28 00:56:00,
2013-01-27 20:01:00,21.6,7.1,29.74,SE,135,0.0,0.0,53,0.00,,---,0.00,VWS V13.01,2013-01-28 01:01:00,
2013-01-27 20:06:00,21.4,6.9,29.74,SE,135,0.0,0.0,53,0.00,,---,0.00,VWS V13.01,2013-01-28 01:06:00,
2013-01-27 20:07:00,21.4,6.9,29.74,SE,135,0.0,0.0,53,0.00,,---,0.00,VWS V13.01,2013-01-28 01:07:00,
2013-01-27 20:11:00,21.4,6.9,29.74,SE,135,0.0,0.0,53,0.00,,---,0.00,VWS V13.01,2013-01-28 01:11:00,
2013-01-27 20:12:00,21.4,6.9,29.74,SE,135,0.0,0.0,53,0.00,,---,0.00,VWS V13.01,2013-01-28 01:12:00,
2013-01-27 20:13:00,21.4,6.9,29.74,East,90,0.0,0.0,53,0.00,,---,0.00,VWS V13.01,2013-01-28 01:13:00,
2013-01-27 20:19:00,21.4,6.9,29.74,SW,225,0.0,0.0,53,0.00,,---,0.00,VWS V13.01,2013-01-28 01:19:00,
2013-01-27 20:24:00,21.4,6.9,29.74,SSE,158,0.0,0.0,53,0.00,,---,0.00,VWS V13.01,2013-01-28 01:24:00,
2013-01-27 20:29:00,21.4,6.9,29.74,SSE,158,0.0,0.0,53,0.00,,---,0.00,VWS V13.01,2013-01-28 01:29:00,
2013-01-27 20:34:00,21.2,7.2,29.74,East,90,0.0,0.0,54,0.00,,---,0.00,VWS V13.01,2013-01-28 01:34:00,
2013-01-27 20:39:00,21.2,7.2,29.74,South,180,0.0,0.0,54,0.00,,---,0.00,VWS V13.01,2013-01-28 01:39:00,
2013-01-27 20:40:00,21.2,7.2,29.74,South,180,0.0,0.0,54,0.00,,---,0.00,VWS V13.01,2013-01-28 01:40:00,
2013-01-27 20:44:00,21.2,7.2,29.74,South,180,0.0,0.0,54,0.00,,---,0.00,VWS V13.01,2013-01-28 01:44:00,
2013-01-27 20:45:00,21.2,7.2,29.74,SSE,158,0.0,0.0,54,0.00,,---,0.00,VWS V13.01,2013-01-28 01:45:00,
2013-01-27 20:49:00,21.2,7.2,29.74,SSE,158,0.0,0.0,54,0.00,,---,0.00,VWS V13.01,2013-01-28 01:49:00,
2013-01-27 20:50:00,21.2,7.6,29.74,SSE,158,0.0,0.0,55,0.00,,---,0.00,VWS V13.01,2013-01-28 01:50:00,
2013-01-27 20:54:00,21.2,7.6,29.74,SSE,158,0.0,0.0,55,0.00,,---,0.00,VWS V13.01,2013-01-28 01:54:00,
2013-01-27 20:55:00,21.2,7.6,29.74,SSE,158,0.0,0.0,55,0.00,,---,0.00,VWS V13.01,2013-01-28 01:55:00,
2013-01-27 20:59:00,21.2,7.6,29.74,SE,135,0.0,0.0,55,0.00,,---,0.00,VWS V13.01,2013-01-28 01:59:00,
2013-01-27 21:00:00,21.2,7.6,29.74,SE,135,0.0,0.0,55,0.00,,---,0.00,VWS V13.01,2013-01-28 02:00:00,
2013-01-27 21:05:00,20.8,7.2,29.74,SE,135,0.0,0.0,55,0.00,,---,0.00,VWS V13.01,2013-01-28 02:05:00,
2013-01-27 21:10:00,20.5,6.9,29.74,SE,135,0.0,0.0,55,0.00,,---,0.00,VWS V13.01,2013-01-28 02:10:00,
2013-01-27 21:15:00,20.3,6.7,29.74,SE,135,0.0,0.0,55,0.00,,---,0.00,VWS V13.01,2013-01-28 02:15:00,
2013-01-27 21:20:00,20.3,6.7,29.74,SE,135,0.0,0.0,55,0.00,,---,0.00,VWS V13.01,2013-01-28 02:20:00,
2013-01-27 21:25:00,20.3,6.7,29.74,SSW,202,0.0,0.0,55,0.00,,---,0.00,VWS V13.01,2013-01-28 02:25:00,
2013-01-27 21:26:00,19.9,6.4,29.74,SSE,158,0.0,0.0,55,0.00,,---,0.00,VWS V13.01,2013-01-28 02:26:00,
2013-01-27 21:30:00,19.8,6.2,29.74,SE,135,0.0,0.0,55,0.00,,---,0.00,VWS V13.01,2013-01-28 02:30:00,
2013-01-27 21:31:00,19.8,6.6,29.74,SE,135,0.0,0.0,56,0.00,,---,0.00,VWS V13.01,2013-01-28 02:31:00,
2013-01-27 21:35:00,19.6,6.4,29.74,East,90,0.0,0.0,56,0.00,,---,0.00,VWS V13.01,2013-01-28 02:35:00,
2013-01-27 21:36:00,19.6,6.4,29.74,East,90,0.0,0.0,56,0.00,,---,0.00,VWS V13.01,2013-01-28 02:36:00,
2013-01-27 21:40:00,19.6,6.1,29.74,East,90,0.0,0.0,55,0.00,,---,0.00,VWS V13.01,2013-01-28 02:40:00,
2013-01-27 21:41:00,19.6,6.1,29.74,East,90,0.0,0.0,55,0.00,,---,0.00,VWS V13.01,2013-01-28 02:41:00,
2013-01-27 21:45:00,19.4,6.3,29.74,SW,225,0.0,0.0,56,0.00,,---,0.00,VWS V13.01,2013-01-28 02:45:00,
2013-01-27 21:46:00,19.4,6.3,29.74,SW,225,0.0,0.0,56,0.00,,---,0.00,VWS V13.01,2013-01-28 02:46:00,
2013-01-27 21:50:00,19.4,6.3,29.74,SSE,158,0.0,0.0,56,0.00,,---,0.00,VWS V13.01,2013-01-28 02:50:00,
2013-01-27 21:51:00,19.4,6.3,29.74,SE,135,0.0,0.0,56,0.00,,---,0.00,VWS V13.01,2013-01-28 02:51:00,
2013-01-27 21:57:00,19.4,6.3,29.74,ESE,112,0.0,0.0,56,0.00,,---,0.00,VWS V13.01,2013-01-28 02:57:00,
2013-01-27 22:02:00,19.0,5.9,29.74,South,180,0.0,0.0,56,0.00,,---,0.00,VWS V13.01,2013-01-28 03:02:00,
2013-01-27 22:07:00,19.0,5.9,29.74,SE,135,0.0,0.0,56,0.00,,---,0.00,VWS V13.01,2013-01-28 03:07:00,
2013-01-27 22:08:00,19.0,5.9,29.74,SE,135,0.0,0.0,56,0.00,,---,0.00,VWS V13.01,2013-01-28 03:08:00,
2013-01-27 22:12:00,18.5,5.4,29.74,SE,135,0.0,0.0,56,0.00,,---,0.00,VWS V13.01,2013-01-28 03:12:00,
2013-01-27 22:13:00,18.5,5.4,29.74,South,180,0.0,0.0,56,0.00,,---,0.00,VWS V13.01,2013-01-28 03:13:00,
2013-01-27 22:17:00,18.5,5.4,29.74,South,180,0.0,0.0,56,0.00,,---,0.00,VWS V13.01,2013-01-28 03:17:00,
2013-01-27 22:18:00,18.5,5.4,29.74,South,180,0.0,0.0,56,0.00,,---,0.00,VWS V13.01,2013-01-28 03:18:00,
2013-01-27 22:24:00,18.5,5.4,29.74,South,180,0.0,0.0,56,0.00,,---,0.00,VWS V13.01,2013-01-28 03:24:00,
2013-01-27 22:29:00,18.5,5.4,29.74,South,180,0.0,0.0,56,0.00,,---,0.00,VWS V13.01,2013-01-28 03:29:00,
2013-01-27 22:34:00,18.1,5.5,29.74,SSE,158,0.0,0.0,57,0.00,,---,0.00,VWS V13.01,2013-01-28 03:34:00,
2013-01-27 22:39:00,18.1,5.5,29.74,SSW,202,0.0,0.0,57,0.00,,---,0.00,VWS V13.01,2013-01-28 03:39:00,
2013-01-27 22:44:00,18.1,5.5,29.74,SSW,202,0.0,0.0,57,0.00,,---,0.00,VWS V13.01,2013-01-28 03:44:00,
2013-01-27 22:45:00,18.1,5.5,29.74,SSW,202,0.0,0.0,57,0.00,,---,0.00,VWS V13.01,2013-01-28 03:45:00,
2013-01-27 22:49:00,18.1,5.5,29.74,SSW,202,0.0,0.9,57,0.00,,---,0.00,VWS V13.01,2013-01-28 03:49:00,
2013-01-27 22:50:00,18.1,5.5,29.74,SSE,158,0.0,0.0,57,0.00,,---,0.00,VWS V13.01,2013-01-28 03:50:00,
2013-01-27 22:54:00,17.6,5.3,29.74,SSE,158,0.0,0.0,58,0.00,,---,0.00,VWS V13.01,2013-01-28 03:54:00,
2013-01-27 22:55:00,17.6,5.3,29.74,SSE,158,0.0,0.0,58,0.00,,---,0.00,VWS V13.01,2013-01-28 03:55:00,
2013-01-27 22:59:00,17.6,5.3,29.74,SSE,158,0.0,0.0,58,0.00,,---,0.00,VWS V13.01,2013-01-28 03:59:00,
2013-01-27 23:00:00,17.6,5.3,29.74,SSE,158,0.0,0.0,58,0.00,,---,0.00,VWS V13.01,2013-01-28 04:00:00,
2013-01-27 23:05:00,17.8,5.5,29.74,SSE,158,0.0,0.0,58,0.00,,---,0.00,VWS V13.01,2013-01-28 04:05:00,
2013-01-27 23:10:00,17.6,5.3,29.74,SSE,158,0.0,0.0,58,0.00,,---,0.00,VWS V13.01,2013-01-28 04:10:00,
2013-01-27 23:15:00,17.6,5.3,29.74,SSE,158,0.0,0.0,58,0.00,,---,0.00,VWS V13.01,2013-01-28 04:15:00,
2013-01-27 23:20:00,17.6,5.3,29.74,SSE,158,0.0,0.0,58,0.00,,---,0.00,VWS V13.01,2013-01-28 04:20:00,
2013-01-27 23:21:00,17.6,5.3,29.74,SSE,158,0.0,0.0,58,0.00,,---,0.00,VWS V13.01,2013-01-28 04:21:00,
2013-01-27 23:25:00,17.1,4.8,29.74,SSE,158,0.0,0.0,58,0.00,,---,0.00,VWS V13.01,2013-01-28 04:25:00,
2013-01-27 23:26:00,17.1,4.8,29.74,SSE,158,0.0,0.0,58,0.00,,---,0.00,VWS V13.01,2013-01-28 04:26:00,
2013-01-27 23:30:00,16.9,4.7,29.74,SSE,158,0.0,0.0,58,0.00,,---,0.00,VWS V13.01,2013-01-28 04:30:00,
2013-01-27 23:31:00,16.9,4.7,29.74,SSE,158,0.0,0.0,58,0.00,,---,0.00,VWS V13.01,2013-01-28 04:31:00,
2013-01-27 23:35:00,16.9,4.7,29.74,SSE,158,0.0,0.0,58,0.00,,---,0.00,VWS V13.01,2013-01-28 04:35:00,
2013-01-27 23:36:00,16.9,4.7,29.74,SSE,158,0.0,0.0,58,0.00,,---,0.00,VWS V13.01,2013-01-28 04:36:00,
2013-01-27 23:40:00,16.9,4.7,29.74,SSE,158,0.0,0.0,58,0.00,,---,0.00,VWS V13.01,2013-01-28 04:40:00,
2013-01-27 23:41:00,16.9,4.7,29.74,SSE,158,0.0,0.0,58,0.00,,---,0.00,VWS V13.01,2013-01-28 04:41:00,
2013-01-27 23:45:00,16.9,4.7,29.74,SSE,158,0.0,0.0,58,0.00,,---,0.00,VWS V13.01,2013-01-28 04:45:00,
2013-01-27 23:46:00,16.9,4.7,29.74,SSE,158,0.0,0.0,58,0.00,,---,0.00,VWS V13.01,2013-01-28 04:46:00,
2013-01-27 23:50:00,16.7,4.9,29.74,SSE,158,0.0,0.0,59,0.00,,---,0.00,VWS V13.01,2013-01-28 04:50:00,
2013-01-27 23:51:00,16.7,4.9,29.74,SSE,158,0.0,0.0,59,0.00,,---,0.00,VWS V13.01,2013-01-28 04:51:00,
2013-01-27 23:55:00,16.7,4.9,29.74,South,180,0.0,0.0,59,0.00,,---,0.00,VWS V13.01,2013-01-28 04:55:00,
2013-01-27 23:56:00,16.7,4.9,29.74,South,180,0.0,0.0,59,0.00,,---,0.00,VWS V13.01,2013-01-28 04:56:00,